QNT872 ZGGG-UZTT
Flight info
| Callsign | QNT872 |
|---|---|
| Flight time | 7h 2m |
| Altitude | 36100 |
| Route | K0870S1100 AGVIL9 AGVIL W24 OSNOV G586 QP B330 ELKAL W179 RIRKI W232 WFX W179 OMBON W195 VIDEK/K0859S1130 W195 LAXAL/K0856S1100 W195 IDOPA W197 ANDIM B215 NOGEX/K0856S1160 B215 IBANO G470 QTV W99 FKG B215 POSOT A343 RULAD/K0850F380 M610 TIRBA L135 MAMIR P984 TISIB TISI2W |
| Aircraft | A332/H-Q/L |
Departure
| Time | 2026-04-25 18:30 |
|---|---|
| Airport | Guangzhou Baiyun International Airport (ZGGG) |
Arrival
| Time | 2026-04-26 01:33 |
|---|---|
| Airport | Tashkent International Airport (UZTT) |
| Time | Latitude | Longitude | Altitude | Speed | Heading |
|---|---|---|---|---|---|
| 2026-04-25 18:01 | 23.40159 | 113.30704 | 63 ft | 0 kts | 266° |
| 2026-04-25 18:17 | 23.40160 | 113.30716 | 58 ft | 4 kts | 268° |
| 2026-04-25 18:17 | 23.40160 | 113.30745 | 56 ft | 4 kts | 271° |
| 2026-04-25 18:18 | 23.40160 | 113.30775 | 56 ft | 4 kts | 268° |
| 2026-04-25 18:18 | 23.40163 | 113.30803 | 57 ft | 4 kts | 248° |
| 2026-04-25 18:18 | 23.40173 | 113.30823 | 58 ft | 4 kts | 230° |
| 2026-04-25 18:18 | 23.40191 | 113.30840 | 58 ft | 4 kts | 199° |
| 2026-04-25 18:19 | 23.40215 | 113.30846 | 54 ft | 2 kts | 194° |
| 2026-04-25 18:19 | 23.40220 | 113.30848 | 54 ft | 0 kts | 194° |
| 2026-04-25 18:24 | 23.40206 | 113.30849 | 57 ft | 6 kts | 169° |
| 2026-04-25 18:24 | 23.40189 | 113.30886 | 59 ft | 6 kts | 83° |
| 2026-04-25 18:24 | 23.40192 | 113.30932 | 57 ft | 6 kts | 90° |
| 2026-04-25 18:24 | 23.40175 | 113.31004 | 60 ft | 12 kts | 122° |
| 2026-04-25 18:25 | 23.40101 | 113.31022 | 55 ft | 12 kts | 194° |
| 2026-04-25 18:25 | 23.40022 | 113.31000 | 56 ft | 12 kts | 195° |
| 2026-04-25 18:25 | 23.39944 | 113.30976 | 58 ft | 12 kts | 196° |
| 2026-04-25 18:25 | 23.39838 | 113.30944 | 60 ft | 25 kts | 194° |
| 2026-04-25 18:26 | 23.39647 | 113.30891 | 58 ft | 29 kts | 194° |
| 2026-04-25 18:26 | 23.39453 | 113.30837 | 55 ft | 29 kts | 193° |
| 2026-04-25 18:26 | 23.39257 | 113.30788 | 57 ft | 29 kts | 194° |
| 2026-04-25 18:26 | 23.39063 | 113.30735 | 58 ft | 29 kts | 194° |
| 2026-04-25 18:27 | 23.38868 | 113.30684 | 58 ft | 29 kts | 194° |
| 2026-04-25 18:27 | 23.38673 | 113.30631 | 55 ft | 29 kts | 194° |
| 2026-04-25 18:27 | 23.38479 | 113.30578 | 57 ft | 29 kts | 193° |
| 2026-04-25 18:27 | 23.38285 | 113.30527 | 55 ft | 29 kts | 194° |
| 2026-04-25 18:28 | 23.38091 | 113.30474 | 58 ft | 29 kts | 194° |
| 2026-04-25 18:28 | 23.37897 | 113.30421 | 55 ft | 29 kts | 194° |
| 2026-04-25 18:28 | 23.37739 | 113.30379 | 55 ft | 16 kts | 194° |
| 2026-04-25 18:29 | 23.37611 | 113.30409 | 56 ft | 10 kts | 108° |
| 2026-04-25 18:29 | 23.37594 | 113.30480 | 60 ft | 10 kts | 102° |
| 2026-04-25 18:30 | 23.38185 | 113.30700 | 57 ft | 102 kts | 13° |
| 2026-04-25 18:30 | 23.39075 | 113.30942 | 59 ft | 160 kts | 14° |
| 2026-04-25 18:30 | 23.40281 | 113.31252 | 436 ft | 179 kts | 13° |
| 2026-04-25 18:30 | 23.41508 | 113.31557 | 1156 ft | 186 kts | 15° |
| 2026-04-25 18:31 | 23.42783 | 113.31943 | 1776 ft | 192 kts | 16° |
| 2026-04-25 18:31 | 23.44070 | 113.32340 | 2250 ft | 196 kts | 16° |
| 2026-04-25 18:31 | 23.45392 | 113.32745 | 2770 ft | 198 kts | 16° |
| 2026-04-25 18:31 | 23.46720 | 113.33149 | 3288 ft | 200 kts | 16° |
| 2026-04-25 18:32 | 23.48129 | 113.33575 | 3488 ft | 221 kts | 16° |
| 2026-04-25 18:32 | 23.49682 | 113.34042 | 3632 ft | 242 kts | 16° |
| 2026-04-25 18:32 | 23.51380 | 113.34551 | 3899 ft | 260 kts | 16° |
| 2026-04-25 18:32 | 23.53151 | 113.35080 | 4431 ft | 268 kts | 16° |
| 2026-04-25 18:33 | 23.54962 | 113.35621 | 5069 ft | 271 kts | 16° |
| 2026-04-25 18:33 | 23.56807 | 113.36105 | 5705 ft | 274 kts | 11° |
| 2026-04-25 18:33 | 23.58701 | 113.36458 | 6326 ft | 277 kts | 9° |
| 2026-04-25 18:33 | 23.60611 | 113.36800 | 6922 ft | 279 kts | 9° |
| 2026-04-25 18:34 | 23.62529 | 113.37154 | 7526 ft | 280 kts | 9° |
| 2026-04-25 18:34 | 23.64459 | 113.37515 | 8124 ft | 282 kts | 9° |
| 2026-04-25 18:34 | 23.66354 | 113.37874 | 8695 ft | 284 kts | 9° |
| 2026-04-25 18:34 | 23.68308 | 113.38245 | 9287 ft | 286 kts | 9° |
| 2026-04-25 18:35 | 23.70270 | 113.38620 | 9886 ft | 287 kts | 8° |
| 2026-04-25 18:35 | 23.72258 | 113.38999 | 10290 ft | 295 kts | 8° |
| 2026-04-25 18:35 | 23.74359 | 113.39399 | 10417 ft | 316 kts | 8° |
| 2026-04-25 18:35 | 23.76598 | 113.39827 | 10577 ft | 337 kts | 8° |
| 2026-04-25 18:36 | 23.78930 | 113.40246 | 10818 ft | 347 kts | 4° |
| 2026-04-25 18:36 | 23.81350 | 113.39976 | 11171 ft | 357 kts | 341° |
| 2026-04-25 18:36 | 23.83294 | 113.38859 | 11798 ft | 359 kts | 322° |
| 2026-04-25 18:36 | 23.84962 | 113.36852 | 12682 ft | 360 kts | 303° |
| 2026-04-25 18:37 | 23.85938 | 113.34333 | 13428 ft | 367 kts | 282° |
| 2026-04-25 18:37 | 23.86248 | 113.31561 | 13987 ft | 371 kts | 277° |
| 2026-04-25 18:37 | 23.86475 | 113.28724 | 14625 ft | 377 kts | 277° |
| 2026-04-25 18:37 | 23.86695 | 113.25860 | 15409 ft | 379 kts | 277° |
| 2026-04-25 18:38 | 23.86925 | 113.22982 | 16211 ft | 382 kts | 277° |
| 2026-04-25 18:38 | 23.87169 | 113.20080 | 16974 ft | 385 kts | 277° |
| 2026-04-25 18:38 | 23.87425 | 113.17149 | 17688 ft | 390 kts | 278° |
| 2026-04-25 18:38 | 23.87689 | 113.14175 | 18387 ft | 395 kts | 278° |
| 2026-04-25 18:39 | 23.87957 | 113.11177 | 19040 ft | 399 kts | 278° |
| 2026-04-25 18:39 | 23.88229 | 113.08145 | 19772 ft | 400 kts | 278° |
| 2026-04-25 18:39 | 23.88501 | 113.05110 | 20522 ft | 402 kts | 278° |
| 2026-04-25 18:39 | 23.88774 | 113.02061 | 21234 ft | 405 kts | 278° |
| 2026-04-25 18:40 | 23.89181 | 112.99024 | 21778 ft | 404 kts | 288° |
| 2026-04-25 18:40 | 23.89895 | 112.97138 | 22105 ft | 407 kts | 301° |
| 2026-04-25 18:40 | 23.91634 | 112.94700 | 22759 ft | 409 kts | 316° |
| 2026-04-25 18:40 | 23.93878 | 112.92780 | 23484 ft | 411 kts | 328° |
| 2026-04-25 18:41 | 23.96514 | 112.91553 | 24010 ft | 415 kts | 341° |
| 2026-04-25 18:41 | 23.99300 | 112.90660 | 24437 ft | 421 kts | 342° |
| 2026-04-25 18:41 | 24.02133 | 112.89796 | 24939 ft | 424 kts | 342° |
| 2026-04-25 18:41 | 24.04972 | 112.88913 | 25523 ft | 425 kts | 341° |
| 2026-04-25 18:42 | 24.07814 | 112.87997 | 26064 ft | 427 kts | 341° |
| 2026-04-25 18:42 | 24.09738 | 112.87363 | 26396 ft | 429 kts | 340° |
| 2026-04-25 18:42 | 24.13537 | 112.86093 | 27019 ft | 433 kts | 340° |
| 2026-04-25 18:42 | 24.16431 | 112.85124 | 27490 ft | 435 kts | 340° |
| 2026-04-25 18:43 | 24.19342 | 112.84156 | 27958 ft | 437 kts | 340° |
| 2026-04-25 18:43 | 24.22259 | 112.83189 | 28417 ft | 439 kts | 340° |
| 2026-04-25 18:43 | 24.25193 | 112.82218 | 28849 ft | 441 kts | 340° |
| 2026-04-25 18:43 | 24.28145 | 112.81238 | 29221 ft | 445 kts | 340° |
| 2026-04-25 18:44 | 24.31119 | 112.80251 | 29554 ft | 447 kts | 339° |
| 2026-04-25 18:44 | 24.34070 | 112.79270 | 29924 ft | 449 kts | 339° |
| 2026-04-25 18:44 | 24.37105 | 112.78261 | 30277 ft | 451 kts | 339° |
| 2026-04-25 18:44 | 24.40069 | 112.77276 | 30607 ft | 451 kts | 339° |
| 2026-04-25 18:45 | 24.43016 | 112.76162 | 30821 ft | 446 kts | 331° |
| 2026-04-25 18:45 | 24.45583 | 112.74263 | 30938 ft | 446 kts | 315° |
| 2026-04-25 18:45 | 24.47562 | 112.71654 | 31189 ft | 445 kts | 303° |
| 2026-04-25 18:45 | 24.49080 | 112.68700 | 31500 ft | 445 kts | 295° |
| 2026-04-25 18:46 | 24.50051 | 112.65465 | 31745 ft | 447 kts | 281° |
| 2026-04-25 18:46 | 24.50422 | 112.62078 | 31900 ft | 450 kts | 278° |
| 2026-04-25 18:46 | 24.50709 | 112.58647 | 32154 ft | 450 kts | 277° |
| 2026-04-25 18:46 | 24.50978 | 112.55226 | 32536 ft | 448 kts | 278° |
| 2026-04-25 18:47 | 24.51254 | 112.51826 | 32905 ft | 446 kts | 278° |
| 2026-04-25 18:47 | 24.51546 | 112.48446 | 33257 ft | 444 kts | 278° |
| 2026-04-25 18:47 | 24.51848 | 112.45114 | 33603 ft | 443 kts | 278° |
| 2026-04-25 18:47 | 24.52164 | 112.41746 | 33927 ft | 442 kts | 279° |
| 2026-04-25 18:48 | 24.52485 | 112.38392 | 34264 ft | 441 kts | 279° |
| 2026-04-25 18:48 | 24.52806 | 112.35050 | 34571 ft | 440 kts | 279° |
| 2026-04-25 18:48 | 24.53127 | 112.31709 | 34845 ft | 440 kts | 279° |
| 2026-04-25 18:48 | 24.53448 | 112.28373 | 35123 ft | 439 kts | 278° |
| 2026-04-25 18:49 | 24.53763 | 112.25062 | 35531 ft | 435 kts | 279° |
| 2026-04-25 18:49 | 24.54078 | 112.21760 | 35750 ft | 435 kts | 279° |
| 2026-04-25 18:49 | 24.54393 | 112.18446 | 35989 ft | 435 kts | 279° |
| 2026-04-25 18:49 | 24.54707 | 112.15123 | 36035 ft | 438 kts | 279° |
| 2026-04-25 18:50 | 24.55338 | 112.08460 | 36129 ft | 437 kts | 279° |
| 2026-04-25 18:50 | 24.55958 | 112.01840 | 36134 ft | 435 kts | 278° |
| 2026-04-25 18:51 | 24.56470 | 111.96349 | 36136 ft | 435 kts | 278° |
| 2026-04-25 18:51 | 24.57191 | 111.88597 | 36135 ft | 436 kts | 278° |
| 2026-04-25 18:52 | 24.57806 | 111.81958 | 36138 ft | 437 kts | 278° |
| 2026-04-25 18:52 | 24.58419 | 111.75303 | 36129 ft | 438 kts | 278° |
| 2026-04-25 18:53 | 24.59029 | 111.68642 | 36135 ft | 438 kts | 278° |
| 2026-04-25 18:53 | 24.59636 | 111.61972 | 36127 ft | 439 kts | 278° |
| 2026-04-25 18:54 | 24.60543 | 111.51964 | 36120 ft | 438 kts | 278° |
| 2026-04-25 18:55 | 24.61143 | 111.45299 | 36130 ft | 439 kts | 278° |
| 2026-04-25 18:55 | 24.61742 | 111.38617 | 36124 ft | 439 kts | 278° |
| 2026-04-25 18:56 | 24.62334 | 111.31974 | 36124 ft | 439 kts | 278° |
| 2026-04-25 18:56 | 24.62925 | 111.25274 | 36122 ft | 440 kts | 278° |
| 2026-04-25 18:57 | 24.63507 | 111.18577 | 36115 ft | 441 kts | 278° |
| 2026-04-25 18:57 | 24.64088 | 111.11863 | 36118 ft | 441 kts | 278° |
| 2026-04-25 18:58 | 24.64666 | 111.05147 | 36105 ft | 442 kts | 278° |
| 2026-04-25 18:58 | 24.65530 | 110.95058 | 36114 ft | 442 kts | 278° |
| 2026-04-25 18:59 | 24.66805 | 110.81625 | 36109 ft | 438 kts | 286° |
| 2026-04-25 19:00 | 24.69339 | 110.75593 | 36124 ft | 436 kts | 304° |
| 2026-04-25 19:00 | 24.71252 | 110.73008 | 36103 ft | 436 kts | 315° |
| 2026-04-25 19:01 | 24.77885 | 110.66165 | 36112 ft | 439 kts | 316° |
| 2026-04-25 19:01 | 24.82338 | 110.61541 | 36115 ft | 441 kts | 315° |
| 2026-04-25 19:02 | 24.88982 | 110.54533 | 36115 ft | 440 kts | 315° |
| 2026-04-25 19:03 | 24.94140 | 110.49073 | 36102 ft | 439 kts | 315° |
| 2026-04-25 19:03 | 24.99996 | 110.42874 | 36113 ft | 437 kts | 315° |
| 2026-04-25 19:04 | 25.06591 | 110.35906 | 36107 ft | 438 kts | 315° |
| 2026-04-25 19:05 | 25.15367 | 110.26637 | 36115 ft | 437 kts | 315° |
| 2026-04-25 19:06 | 25.19763 | 110.21984 | 36120 ft | 438 kts | 315° |
| 2026-04-25 19:06 | 25.26387 | 110.15033 | 36118 ft | 438 kts | 315° |
| 2026-04-25 19:07 | 25.33032 | 110.08087 | 36121 ft | 438 kts | 315° |
| 2026-04-25 19:08 | 25.39666 | 110.01128 | 36117 ft | 438 kts | 315° |
| 2026-04-25 19:09 | 25.47747 | 109.92633 | 36110 ft | 438 kts | 315° |
| 2026-04-25 19:10 | 25.55117 | 109.84872 | 36111 ft | 438 kts | 315° |
| 2026-04-25 19:10 | 25.59530 | 109.80219 | 36119 ft | 438 kts | 315° |
| 2026-04-25 19:11 | 25.63917 | 109.75587 | 36119 ft | 438 kts | 315° |
| 2026-04-25 19:11 | 25.68336 | 109.70915 | 36111 ft | 438 kts | 315° |
| 2026-04-25 19:12 | 25.72747 | 109.66250 | 36113 ft | 438 kts | 315° |
| 2026-04-25 19:12 | 25.76674 | 109.61132 | 36120 ft | 435 kts | 302° |
| 2026-04-25 19:13 | 25.79345 | 109.55123 | 36109 ft | 437 kts | 289° |
| 2026-04-25 19:13 | 25.81043 | 109.48683 | 36114 ft | 437 kts | 287° |
| 2026-04-25 19:14 | 25.82693 | 109.42172 | 36112 ft | 438 kts | 287° |
| 2026-04-25 19:14 | 25.84379 | 109.35661 | 36117 ft | 438 kts | 287° |
| 2026-04-25 19:15 | 25.86086 | 109.29153 | 36114 ft | 439 kts | 288° |
| 2026-04-25 19:15 | 25.87793 | 109.22642 | 36118 ft | 439 kts | 287° |
| 2026-04-25 19:16 | 25.89497 | 109.16121 | 36116 ft | 439 kts | 287° |
| 2026-04-25 19:16 | 25.91199 | 109.09599 | 36117 ft | 439 kts | 288° |
| 2026-04-25 19:17 | 25.92900 | 109.03080 | 36128 ft | 439 kts | 288° |
| 2026-04-25 19:17 | 25.94616 | 108.96577 | 36127 ft | 439 kts | 288° |
| 2026-04-25 19:18 | 25.96328 | 108.90101 | 36127 ft | 439 kts | 288° |
| 2026-04-25 19:18 | 25.98048 | 108.83571 | 36135 ft | 440 kts | 287° |
| 2026-04-25 19:19 | 25.99763 | 108.77040 | 36137 ft | 440 kts | 287° |
| 2026-04-25 19:19 | 26.01479 | 108.70510 | 36136 ft | 440 kts | 288° |
| 2026-04-25 19:20 | 26.03229 | 108.63977 | 36144 ft | 440 kts | 288° |
| 2026-04-25 19:20 | 26.04978 | 108.57451 | 36149 ft | 440 kts | 288° |
| 2026-04-25 19:21 | 26.06720 | 108.50915 | 36157 ft | 440 kts | 288° |
| 2026-04-25 19:21 | 26.09343 | 108.41121 | 36150 ft | 440 kts | 289° |
| 2026-04-25 19:22 | 26.11734 | 108.34851 | 36148 ft | 440 kts | 296° |
| 2026-04-25 19:23 | 26.15740 | 108.25709 | 36158 ft | 440 kts | 296° |
| 2026-04-25 19:23 | 26.19728 | 108.16505 | 36149 ft | 440 kts | 296° |
| 2026-04-25 19:24 | 26.21929 | 108.11396 | 36159 ft | 440 kts | 296° |
| 2026-04-25 19:25 | 26.27211 | 107.99101 | 36157 ft | 440 kts | 296° |
| 2026-04-25 19:25 | 26.29834 | 107.92989 | 36146 ft | 430 kts | 296° |
| 2026-04-25 19:26 | 26.32401 | 107.86995 | 36156 ft | 428 kts | 296° |
| 2026-04-25 19:26 | 26.33688 | 107.83987 | 36283 ft | 431 kts | 295° |
| 2026-04-25 19:26 | 26.34975 | 107.80976 | 36614 ft | 430 kts | 295° |
| 2026-04-25 19:27 | 26.36240 | 107.78018 | 37026 ft | 426 kts | 295° |
| 2026-04-25 19:27 | 26.37098 | 107.76007 | 37298 ft | 424 kts | 295° |
| 2026-04-25 19:27 | 26.38775 | 107.72078 | 37747 ft | 422 kts | 295° |
| 2026-04-25 19:27 | 26.40034 | 107.69124 | 37993 ft | 423 kts | 295° |
| 2026-04-25 19:28 | 26.42569 | 107.63170 | 38056 ft | 425 kts | 295° |
| 2026-04-25 19:28 | 26.45086 | 107.57250 | 38063 ft | 419 kts | 295° |
| 2026-04-25 19:29 | 26.47584 | 107.51372 | 38057 ft | 419 kts | 295° |
| 2026-04-25 19:29 | 26.50095 | 107.45515 | 38059 ft | 418 kts | 295° |
| 2026-04-25 19:30 | 26.52608 | 107.39658 | 38066 ft | 417 kts | 295° |
| 2026-04-25 19:30 | 26.55088 | 107.33859 | 38136 ft | 415 kts | 295° |
| 2026-04-25 19:31 | 26.57541 | 107.28033 | 38163 ft | 414 kts | 294° |
| 2026-04-25 19:31 | 26.59987 | 107.22200 | 38165 ft | 415 kts | 294° |
| 2026-04-25 19:32 | 26.62442 | 107.16348 | 38164 ft | 416 kts | 294° |
| 2026-04-25 19:32 | 26.64493 | 107.11480 | 38171 ft | 416 kts | 294° |
| 2026-04-25 19:33 | 26.67412 | 107.04633 | 38163 ft | 418 kts | 294° |
| 2026-04-25 19:33 | 26.69907 | 106.98768 | 38139 ft | 418 kts | 294° |
| 2026-04-25 19:34 | 26.72400 | 106.92892 | 38155 ft | 418 kts | 294° |
| 2026-04-25 19:34 | 26.74891 | 106.87013 | 38157 ft | 418 kts | 294° |
| 2026-04-25 19:35 | 26.77463 | 106.81182 | 38138 ft | 419 kts | 300° |
| 2026-04-25 19:35 | 26.80943 | 106.75987 | 38151 ft | 422 kts | 309° |
| 2026-04-25 19:36 | 26.85234 | 106.71468 | 38151 ft | 424 kts | 316° |
| 2026-04-25 19:36 | 26.89709 | 106.67159 | 38153 ft | 425 kts | 316° |
| 2026-04-25 19:37 | 26.94186 | 106.62817 | 38140 ft | 425 kts | 316° |
| 2026-04-25 19:37 | 26.98643 | 106.58451 | 38134 ft | 426 kts | 315° |
| 2026-04-25 19:38 | 27.03093 | 106.54074 | 38126 ft | 426 kts | 315° |
| 2026-04-25 19:38 | 27.07555 | 106.49681 | 38116 ft | 426 kts | 315° |
| 2026-04-25 19:39 | 27.11986 | 106.45313 | 38105 ft | 426 kts | 315° |
| 2026-04-25 19:39 | 27.16442 | 106.40918 | 38093 ft | 426 kts | 316° |
| 2026-04-25 19:40 | 27.20898 | 106.36522 | 38095 ft | 426 kts | 315° |
| 2026-04-25 19:40 | 27.25380 | 106.32161 | 38109 ft | 426 kts | 316° |
| 2026-04-25 19:41 | 27.29881 | 106.27795 | 38080 ft | 428 kts | 316° |
| 2026-04-25 19:41 | 27.32888 | 106.24872 | 38079 ft | 427 kts | 315° |
| 2026-04-25 19:42 | 27.38886 | 106.19027 | 38075 ft | 428 kts | 315° |
| 2026-04-25 19:42 | 27.43386 | 106.14635 | 38069 ft | 429 kts | 315° |
| 2026-04-25 19:43 | 27.47892 | 106.10230 | 38068 ft | 429 kts | 315° |
| 2026-04-25 19:43 | 27.52411 | 106.05809 | 38057 ft | 429 kts | 315° |
| 2026-04-25 19:44 | 27.56894 | 106.01418 | 38056 ft | 430 kts | 315° |
| 2026-04-25 19:44 | 27.61406 | 105.96993 | 38056 ft | 431 kts | 315° |
| 2026-04-25 19:45 | 27.65956 | 105.92524 | 38049 ft | 431 kts | 315° |
| 2026-04-25 19:45 | 27.70429 | 105.88022 | 38035 ft | 428 kts | 309° |
| 2026-04-25 19:46 | 27.73760 | 105.82554 | 38024 ft | 423 kts | 295° |
| 2026-04-25 19:46 | 27.75771 | 105.76357 | 38019 ft | 420 kts | 285° |
| 2026-04-25 19:47 | 27.77464 | 105.70077 | 38022 ft | 421 kts | 286° |
| 2026-04-25 19:47 | 27.79234 | 105.63755 | 38011 ft | 422 kts | 286° |
| 2026-04-25 19:48 | 27.81345 | 105.57559 | 38005 ft | 423 kts | 292° |
| 2026-04-25 19:48 | 27.83737 | 105.51480 | 37994 ft | 423 kts | 292° |
| 2026-04-25 19:49 | 27.85307 | 105.47442 | 37992 ft | 423 kts | 291° |
| 2026-04-25 19:49 | 27.89191 | 105.39774 | 37976 ft | 429 kts | 311° |
| 2026-04-25 19:50 | 27.94013 | 105.35732 | 37973 ft | 439 kts | 329° |
| 2026-04-25 19:50 | 27.96772 | 105.34226 | 37968 ft | 441 kts | 330° |
| 2026-04-25 19:51 | 28.02361 | 105.31292 | 37947 ft | 444 kts | 330° |
| 2026-04-25 19:51 | 28.07944 | 105.28310 | 37948 ft | 444 kts | 330° |
| 2026-04-25 19:52 | 28.13501 | 105.25277 | 37942 ft | 443 kts | 330° |
| 2026-04-25 19:52 | 28.19038 | 105.22234 | 37930 ft | 442 kts | 330° |
| 2026-04-25 19:53 | 28.24583 | 105.19183 | 37921 ft | 442 kts | 330° |
| 2026-04-25 19:53 | 28.30109 | 105.16142 | 37916 ft | 441 kts | 330° |
| 2026-04-25 19:54 | 28.35593 | 105.13120 | 37914 ft | 440 kts | 330° |
| 2026-04-25 19:54 | 28.41099 | 105.10082 | 37909 ft | 439 kts | 330° |
| 2026-04-25 19:55 | 28.46588 | 105.07054 | 37912 ft | 439 kts | 330° |
| 2026-04-25 19:55 | 28.52085 | 105.04025 | 37914 ft | 438 kts | 330° |
| 2026-04-25 19:56 | 28.57570 | 105.00999 | 37902 ft | 438 kts | 330° |
| 2026-04-25 19:56 | 28.63062 | 104.97965 | 37906 ft | 438 kts | 330° |
| 2026-04-25 19:57 | 28.68554 | 104.94926 | 37901 ft | 438 kts | 330° |
| 2026-04-25 19:57 | 28.74039 | 104.91887 | 37903 ft | 438 kts | 330° |
| 2026-04-25 19:58 | 28.79523 | 104.88845 | 37903 ft | 438 kts | 330° |
| 2026-04-25 19:58 | 28.84996 | 104.85806 | 37908 ft | 437 kts | 330° |
| 2026-04-25 19:59 | 28.90439 | 104.82780 | 37915 ft | 437 kts | 330° |
| 2026-04-25 19:59 | 28.95896 | 104.79732 | 37910 ft | 436 kts | 330° |
| 2026-04-25 20:00 | 29.01344 | 104.76679 | 37918 ft | 436 kts | 330° |
| 2026-04-25 20:00 | 29.06791 | 104.73622 | 37922 ft | 436 kts | 330° |
| 2026-04-25 20:01 | 29.14957 | 104.69036 | 37930 ft | 435 kts | 330° |
| 2026-04-25 20:01 | 29.20371 | 104.65991 | 37923 ft | 435 kts | 330° |
| 2026-04-25 20:02 | 29.25809 | 104.62928 | 37932 ft | 436 kts | 330° |
| 2026-04-25 20:02 | 29.31494 | 104.60471 | 37943 ft | 441 kts | 342° |
| 2026-04-25 20:03 | 29.37585 | 104.59340 | 37939 ft | 446 kts | 351° |
| 2026-04-25 20:03 | 29.43789 | 104.58857 | 37945 ft | 447 kts | 352° |
| 2026-04-25 20:04 | 29.50001 | 104.58407 | 37945 ft | 447 kts | 352° |
| 2026-04-25 20:04 | 29.56170 | 104.57924 | 37940 ft | 447 kts | 352° |
| 2026-04-25 20:05 | 29.62376 | 104.57415 | 37957 ft | 447 kts | 352° |
| 2026-04-25 20:05 | 29.68575 | 104.56901 | 37952 ft | 446 kts | 351° |
| 2026-04-25 20:06 | 29.74767 | 104.56387 | 37948 ft | 445 kts | 351° |
| 2026-04-25 20:06 | 29.80943 | 104.55875 | 37952 ft | 445 kts | 351° |
| 2026-04-25 20:07 | 29.87114 | 104.55362 | 37961 ft | 444 kts | 351° |
| 2026-04-25 20:07 | 29.92247 | 104.54934 | 37958 ft | 444 kts | 351° |
| 2026-04-25 20:08 | 29.98412 | 104.54421 | 37963 ft | 444 kts | 351° |
| 2026-04-25 20:08 | 30.04585 | 104.53907 | 37963 ft | 444 kts | 351° |
| 2026-04-25 20:09 | 30.10695 | 104.53397 | 37961 ft | 443 kts | 351° |
| 2026-04-25 20:09 | 30.16852 | 104.52883 | 37961 ft | 443 kts | 351° |
| 2026-04-25 20:10 | 30.22998 | 104.52369 | 37929 ft | 442 kts | 351° |
| 2026-04-25 20:10 | 30.29132 | 104.51854 | 37928 ft | 442 kts | 351° |
| 2026-04-25 20:11 | 30.35261 | 104.51340 | 37936 ft | 442 kts | 351° |
| 2026-04-25 20:11 | 30.41403 | 104.50825 | 37938 ft | 442 kts | 351° |
| 2026-04-25 20:12 | 30.47543 | 104.50308 | 37946 ft | 443 kts | 351° |
| 2026-04-25 20:12 | 30.52651 | 104.49879 | 37949 ft | 443 kts | 351° |
| 2026-04-25 20:13 | 30.59831 | 104.49134 | 37967 ft | 441 kts | 345° |
| 2026-04-25 20:13 | 30.65733 | 104.47360 | 37962 ft | 436 kts | 336° |
| 2026-04-25 20:14 | 30.71492 | 104.45082 | 37968 ft | 438 kts | 336° |
| 2026-04-25 20:14 | 30.77249 | 104.42835 | 37960 ft | 440 kts | 336° |
| 2026-04-25 20:15 | 30.83073 | 104.40593 | 37961 ft | 442 kts | 337° |
| 2026-04-25 20:15 | 30.89128 | 104.39039 | 37965 ft | 450 kts | 347° |
| 2026-04-25 20:16 | 30.95423 | 104.38680 | 37964 ft | 455 kts | 353° |
| 2026-04-25 20:16 | 31.01752 | 104.38583 | 37963 ft | 455 kts | 353° |
| 2026-04-25 20:17 | 31.08078 | 104.38450 | 37964 ft | 454 kts | 353° |
| 2026-04-25 20:17 | 31.14390 | 104.38284 | 37964 ft | 453 kts | 353° |
| 2026-04-25 20:18 | 31.20696 | 104.38114 | 37967 ft | 453 kts | 353° |
| 2026-04-25 20:18 | 31.26956 | 104.37928 | 37966 ft | 451 kts | 352° |
| 2026-04-25 20:19 | 31.33218 | 104.37573 | 37974 ft | 449 kts | 351° |
| 2026-04-25 20:19 | 31.39463 | 104.37179 | 37978 ft | 449 kts | 351° |
| 2026-04-25 20:20 | 31.45701 | 104.36805 | 37985 ft | 448 kts | 351° |
| 2026-04-25 20:20 | 31.51926 | 104.36444 | 37990 ft | 447 kts | 351° |
| 2026-04-25 20:21 | 31.58095 | 104.36088 | 38000 ft | 446 kts | 351° |
| 2026-04-25 20:21 | 31.64289 | 104.35729 | 37997 ft | 444 kts | 351° |
| 2026-04-25 20:22 | 31.69456 | 104.35429 | 38008 ft | 443 kts | 352° |
| 2026-04-25 20:22 | 31.76571 | 104.35018 | 38081 ft | 438 kts | 351° |
| 2026-04-25 20:23 | 31.82676 | 104.34691 | 38052 ft | 438 kts | 351° |
| 2026-04-25 20:23 | 31.88792 | 104.34379 | 38040 ft | 441 kts | 351° |
| 2026-04-25 20:24 | 31.94943 | 104.34069 | 38056 ft | 443 kts | 351° |
| 2026-04-25 20:24 | 32.01084 | 104.33754 | 38046 ft | 444 kts | 351° |
| 2026-04-25 20:25 | 32.07248 | 104.33443 | 38010 ft | 441 kts | 351° |
| 2026-04-25 20:25 | 32.13357 | 104.33136 | 38077 ft | 438 kts | 351° |
| 2026-04-25 20:26 | 32.19461 | 104.32812 | 38064 ft | 439 kts | 351° |
| 2026-04-25 20:26 | 32.25583 | 104.32492 | 38069 ft | 441 kts | 351° |
| 2026-04-25 20:27 | 32.31727 | 104.32179 | 38069 ft | 442 kts | 351° |
| 2026-04-25 20:27 | 32.37870 | 104.31862 | 38062 ft | 441 kts | 351° |
| 2026-04-25 20:28 | 32.44002 | 104.31548 | 38063 ft | 440 kts | 351° |
| 2026-04-25 20:28 | 32.50107 | 104.31242 | 38064 ft | 439 kts | 351° |
| 2026-04-25 20:29 | 32.56158 | 104.30939 | 38088 ft | 437 kts | 351° |
| 2026-04-25 20:29 | 32.62235 | 104.30637 | 38083 ft | 437 kts | 351° |
| 2026-04-25 20:30 | 32.68322 | 104.30346 | 38076 ft | 437 kts | 351° |
| 2026-04-25 20:30 | 32.74401 | 104.30058 | 38076 ft | 437 kts | 351° |
| 2026-04-25 20:31 | 32.80472 | 104.29766 | 38063 ft | 436 kts | 351° |
| 2026-04-25 20:31 | 32.86526 | 104.29476 | 38067 ft | 435 kts | 351° |
| 2026-04-25 20:32 | 32.92579 | 104.29185 | 38072 ft | 435 kts | 351° |
| 2026-04-25 20:32 | 32.98605 | 104.28893 | 38077 ft | 436 kts | 351° |
| 2026-04-25 20:33 | 33.04687 | 104.28600 | 38063 ft | 437 kts | 351° |
| 2026-04-25 20:33 | 33.09735 | 104.28359 | 38053 ft | 437 kts | 351° |
| 2026-04-25 20:34 | 33.16829 | 104.28016 | 38076 ft | 436 kts | 351° |
| 2026-04-25 20:34 | 33.22912 | 104.27718 | 38077 ft | 438 kts | 351° |
| 2026-04-25 20:35 | 33.29021 | 104.27424 | 38069 ft | 439 kts | 351° |
| 2026-04-25 20:35 | 33.35013 | 104.26530 | 38070 ft | 427 kts | 338° |
| 2026-04-25 20:36 | 33.40476 | 104.23968 | 38056 ft | 417 kts | 325° |
| 2026-04-25 20:36 | 33.45456 | 104.20512 | 38066 ft | 415 kts | 324° |
| 2026-04-25 20:37 | 33.50442 | 104.17060 | 38080 ft | 410 kts | 324° |
| 2026-04-25 20:37 | 33.55423 | 104.13675 | 38070 ft | 415 kts | 328° |
| 2026-04-25 20:38 | 33.61020 | 104.11518 | 38057 ft | 431 kts | 343° |
| 2026-04-25 20:38 | 33.67091 | 104.11016 | 38049 ft | 443 kts | 353° |
| 2026-04-25 20:39 | 33.73269 | 104.11091 | 38051 ft | 444 kts | 353° |
| 2026-04-25 20:39 | 33.77403 | 104.11147 | 38063 ft | 443 kts | 353° |
| 2026-04-25 20:40 | 33.85590 | 104.11198 | 38052 ft | 440 kts | 353° |
| 2026-04-25 20:40 | 33.91667 | 104.11212 | 38054 ft | 434 kts | 352° |
| 2026-04-25 20:41 | 33.97729 | 104.11200 | 38051 ft | 435 kts | 352° |
| 2026-04-25 20:41 | 34.03771 | 104.11191 | 38052 ft | 439 kts | 352° |
| 2026-04-25 20:42 | 34.09888 | 104.11193 | 38070 ft | 440 kts | 353° |
| 2026-04-25 20:42 | 34.16001 | 104.11196 | 38046 ft | 438 kts | 352° |
| 2026-04-25 20:43 | 34.22082 | 104.11202 | 38055 ft | 434 kts | 352° |
| 2026-04-25 20:43 | 34.28099 | 104.11204 | 38065 ft | 431 kts | 352° |
| 2026-04-25 20:44 | 34.34085 | 104.11203 | 38077 ft | 429 kts | 352° |
| 2026-04-25 20:44 | 34.40060 | 104.11198 | 38087 ft | 431 kts | 352° |
| 2026-04-25 20:45 | 34.46082 | 104.11193 | 38096 ft | 433 kts | 352° |
| 2026-04-25 20:45 | 34.52125 | 104.11194 | 38092 ft | 434 kts | 352° |
| 2026-04-25 20:46 | 34.58161 | 104.11198 | 38095 ft | 433 kts | 352° |
| 2026-04-25 20:46 | 34.64148 | 104.11199 | 38096 ft | 432 kts | 352° |
| 2026-04-25 20:47 | 34.70162 | 104.11199 | 38104 ft | 431 kts | 352° |
| 2026-04-25 20:47 | 34.76150 | 104.11200 | 38109 ft | 431 kts | 352° |
| 2026-04-25 20:48 | 34.82172 | 104.11197 | 38115 ft | 433 kts | 352° |
| 2026-04-25 20:48 | 34.88188 | 104.11198 | 38110 ft | 431 kts | 351° |
| 2026-04-25 20:49 | 34.94175 | 104.11201 | 38118 ft | 429 kts | 351° |
| 2026-04-25 20:49 | 35.00120 | 104.11205 | 38139 ft | 426 kts | 351° |
| 2026-04-25 20:50 | 35.05065 | 104.11199 | 38126 ft | 428 kts | 351° |
| 2026-04-25 20:50 | 35.11996 | 104.11198 | 38139 ft | 428 kts | 351° |
| 2026-04-25 20:51 | 35.17000 | 104.11198 | 38136 ft | 428 kts | 351° |
| 2026-04-25 20:51 | 35.22958 | 104.11199 | 38123 ft | 427 kts | 351° |
| 2026-04-25 20:52 | 35.27893 | 104.11200 | 38132 ft | 426 kts | 351° |
| 2026-04-25 20:52 | 35.34769 | 104.11201 | 38134 ft | 424 kts | 351° |
| 2026-04-25 20:53 | 35.40681 | 104.11199 | 38152 ft | 425 kts | 351° |
| 2026-04-25 20:53 | 35.46599 | 104.11199 | 38147 ft | 425 kts | 351° |
| 2026-04-25 20:54 | 35.52529 | 104.11203 | 38151 ft | 426 kts | 351° |
| 2026-04-25 20:54 | 35.58468 | 104.11221 | 38150 ft | 427 kts | 351° |
| 2026-04-25 20:55 | 35.64385 | 104.11242 | 38157 ft | 427 kts | 351° |
| 2026-04-25 20:55 | 35.70327 | 104.11262 | 38158 ft | 426 kts | 351° |
| 2026-04-25 20:56 | 35.76269 | 104.11280 | 38156 ft | 426 kts | 351° |
| 2026-04-25 20:56 | 35.82205 | 104.11293 | 38162 ft | 425 kts | 350° |
| 2026-04-25 20:57 | 35.88056 | 104.10807 | 38166 ft | 420 kts | 346° |
| 2026-04-25 20:57 | 35.93880 | 104.10136 | 38173 ft | 420 kts | 346° |
| 2026-04-25 20:58 | 35.99721 | 104.09477 | 38169 ft | 422 kts | 346° |
| 2026-04-25 20:58 | 36.05525 | 104.08845 | 38166 ft | 422 kts | 346° |
| 2026-04-25 20:59 | 36.11377 | 104.08210 | 38182 ft | 422 kts | 346° |
| 2026-04-25 20:59 | 36.17227 | 104.07572 | 38173 ft | 422 kts | 346° |
| 2026-04-25 21:00 | 36.22123 | 104.07038 | 38179 ft | 421 kts | 346° |
| 2026-04-25 21:01 | 36.31821 | 104.05975 | 38180 ft | 420 kts | 345° |
| 2026-04-25 21:01 | 36.37639 | 104.05335 | 38177 ft | 419 kts | 345° |
| 2026-04-25 21:02 | 36.43436 | 104.04701 | 38176 ft | 417 kts | 345° |
| 2026-04-25 21:02 | 36.49210 | 104.04067 | 38184 ft | 415 kts | 345° |
| 2026-04-25 21:03 | 36.54961 | 104.03432 | 38187 ft | 415 kts | 345° |
| 2026-04-25 21:03 | 36.57774 | 104.02914 | 38173 ft | 399 kts | 333° |
| 2026-04-25 21:03 | 36.60223 | 104.01489 | 38196 ft | 384 kts | 320° |
| 2026-04-25 21:04 | 36.64103 | 103.97104 | 38194 ft | 374 kts | 301° |
| 2026-04-25 21:04 | 36.66589 | 103.91512 | 38209 ft | 373 kts | 296° |
| 2026-04-25 21:05 | 36.69022 | 103.85766 | 38211 ft | 376 kts | 296° |
| 2026-04-25 21:05 | 36.71492 | 103.80006 | 38215 ft | 377 kts | 296° |
| 2026-04-25 21:06 | 36.73978 | 103.74254 | 38213 ft | 376 kts | 296° |
| 2026-04-25 21:06 | 36.76458 | 103.68524 | 38230 ft | 374 kts | 296° |
| 2026-04-25 21:07 | 36.78930 | 103.62803 | 38222 ft | 374 kts | 296° |
| 2026-04-25 21:07 | 36.81390 | 103.57098 | 38237 ft | 373 kts | 296° |
| 2026-04-25 21:08 | 36.83829 | 103.51432 | 38237 ft | 373 kts | 296° |
| 2026-04-25 21:08 | 36.86279 | 103.45732 | 38255 ft | 372 kts | 296° |
| 2026-04-25 21:09 | 36.89957 | 103.37154 | 38248 ft | 374 kts | 296° |
| 2026-04-25 21:09 | 36.92414 | 103.31414 | 38257 ft | 375 kts | 296° |
| 2026-04-25 21:10 | 36.95004 | 103.25744 | 38242 ft | 377 kts | 299° |
| 2026-04-25 21:10 | 36.97806 | 103.20200 | 38265 ft | 377 kts | 300° |
| 2026-04-25 21:11 | 37.00623 | 103.14648 | 38268 ft | 378 kts | 300° |
| 2026-04-25 21:11 | 37.03428 | 103.09087 | 38265 ft | 378 kts | 299° |
| 2026-04-25 21:12 | 37.06225 | 103.03519 | 38264 ft | 378 kts | 299° |
| 2026-04-25 21:12 | 37.08550 | 102.98879 | 38265 ft | 378 kts | 299° |
| 2026-04-25 21:13 | 37.11789 | 102.92404 | 38266 ft | 377 kts | 299° |
| 2026-04-25 21:13 | 37.14577 | 102.86819 | 38275 ft | 378 kts | 299° |
| 2026-04-25 21:14 | 37.17364 | 102.81228 | 38275 ft | 378 kts | 299° |
| 2026-04-25 21:14 | 37.20157 | 102.75615 | 38268 ft | 379 kts | 299° |
| 2026-04-25 21:15 | 37.22954 | 102.69984 | 38274 ft | 381 kts | 299° |
| 2026-04-25 21:15 | 37.25756 | 102.64335 | 38270 ft | 382 kts | 299° |
| 2026-04-25 21:16 | 37.28560 | 102.58670 | 38273 ft | 382 kts | 299° |
| 2026-04-25 21:16 | 37.31368 | 102.52992 | 38282 ft | 382 kts | 299° |
| 2026-04-25 21:17 | 37.34111 | 102.47341 | 38256 ft | 380 kts | 296° |
| 2026-04-25 21:17 | 37.36202 | 102.41282 | 38307 ft | 376 kts | 289° |
| 2026-04-25 21:18 | 37.37649 | 102.34939 | 38277 ft | 379 kts | 284° |
| 2026-04-25 21:18 | 37.38906 | 102.28457 | 38279 ft | 381 kts | 284° |
| 2026-04-25 21:19 | 37.40172 | 102.21971 | 38266 ft | 382 kts | 284° |
| 2026-04-25 21:19 | 37.41448 | 102.15485 | 38251 ft | 381 kts | 283° |
| 2026-04-25 21:20 | 37.42290 | 102.11202 | 38265 ft | 382 kts | 284° |
| 2026-04-25 21:20 | 37.43987 | 102.02547 | 38272 ft | 384 kts | 284° |
| 2026-04-25 21:21 | 37.45247 | 101.96022 | 38245 ft | 382 kts | 284° |
| 2026-04-25 21:21 | 37.46486 | 101.89578 | 38251 ft | 376 kts | 283° |
| 2026-04-25 21:22 | 37.47715 | 101.83183 | 38248 ft | 376 kts | 284° |
| 2026-04-25 21:22 | 37.48941 | 101.76783 | 38232 ft | 378 kts | 284° |
| 2026-04-25 21:23 | 37.50282 | 101.70404 | 38239 ft | 377 kts | 288° |
| 2026-04-25 21:23 | 37.52309 | 101.64278 | 38225 ft | 382 kts | 295° |
| 2026-04-25 21:24 | 37.54806 | 101.58387 | 38243 ft | 383 kts | 295° |
| 2026-04-25 21:24 | 37.57357 | 101.52467 | 38224 ft | 385 kts | 296° |
| 2026-04-25 21:25 | 37.59897 | 101.46532 | 38213 ft | 384 kts | 296° |
| 2026-04-25 21:25 | 37.62418 | 101.40601 | 38209 ft | 383 kts | 296° |
| 2026-04-25 21:26 | 37.64933 | 101.34661 | 38222 ft | 383 kts | 296° |
| 2026-04-25 21:26 | 37.67441 | 101.28728 | 38202 ft | 384 kts | 296° |
| 2026-04-25 21:27 | 37.69951 | 101.22777 | 38218 ft | 384 kts | 296° |
| 2026-04-25 21:27 | 37.72452 | 101.16839 | 38220 ft | 384 kts | 296° |
| 2026-04-25 21:28 | 37.74959 | 101.10872 | 38210 ft | 384 kts | 296° |
| 2026-04-25 21:28 | 37.77464 | 101.04898 | 38196 ft | 385 kts | 296° |
| 2026-04-25 21:29 | 37.79978 | 100.98898 | 38204 ft | 387 kts | 296° |
| 2026-04-25 21:29 | 37.82497 | 100.92870 | 38205 ft | 387 kts | 296° |
| 2026-04-25 21:30 | 37.85073 | 100.86901 | 38211 ft | 386 kts | 297° |
| 2026-04-25 21:30 | 37.87282 | 100.82005 | 38200 ft | 385 kts | 297° |
| 2026-04-25 21:31 | 37.90388 | 100.75104 | 38206 ft | 386 kts | 297° |
| 2026-04-25 21:31 | 37.93019 | 100.69215 | 38208 ft | 386 kts | 297° |
| 2026-04-25 21:32 | 37.95650 | 100.63297 | 38214 ft | 385 kts | 297° |
| 2026-04-25 21:32 | 37.98285 | 100.57354 | 38225 ft | 386 kts | 297° |
| 2026-04-25 21:33 | 38.00910 | 100.51418 | 38223 ft | 386 kts | 297° |
| 2026-04-25 21:33 | 38.03535 | 100.45474 | 38217 ft | 386 kts | 297° |
| 2026-04-25 21:34 | 38.06159 | 100.39521 | 38209 ft | 386 kts | 297° |
| 2026-04-25 21:34 | 38.08335 | 100.34577 | 38217 ft | 386 kts | 296° |
| 2026-04-25 21:35 | 38.10949 | 100.28628 | 38204 ft | 385 kts | 297° |
| 2026-04-25 21:35 | 38.13539 | 100.22717 | 38244 ft | 382 kts | 296° |
| 2026-04-25 21:36 | 38.16139 | 100.16777 | 38203 ft | 386 kts | 296° |
| 2026-04-25 21:36 | 38.18735 | 100.10832 | 38230 ft | 388 kts | 296° |
| 2026-04-25 21:37 | 38.20926 | 100.05807 | 38232 ft | 387 kts | 296° |
| 2026-04-25 21:37 | 38.23949 | 99.98868 | 38239 ft | 385 kts | 296° |
| 2026-04-25 21:38 | 38.26545 | 99.92895 | 38216 ft | 385 kts | 296° |
| 2026-04-25 21:38 | 38.29130 | 99.86931 | 38200 ft | 384 kts | 296° |
| 2026-04-25 21:39 | 38.31696 | 99.80998 | 38213 ft | 385 kts | 296° |
| 2026-04-25 21:39 | 38.34277 | 99.75021 | 38223 ft | 385 kts | 296° |
| 2026-04-25 21:40 | 38.36858 | 99.69035 | 38220 ft | 385 kts | 296° |
| 2026-04-25 21:40 | 38.39432 | 99.63058 | 38227 ft | 383 kts | 296° |
| 2026-04-25 21:41 | 38.41993 | 99.57093 | 38218 ft | 383 kts | 296° |
| 2026-04-25 21:41 | 38.44550 | 99.51130 | 38243 ft | 383 kts | 296° |
| 2026-04-25 21:42 | 38.47092 | 99.45183 | 38225 ft | 385 kts | 296° |
| 2026-04-25 21:42 | 38.49662 | 99.39164 | 38243 ft | 386 kts | 296° |
| 2026-04-25 21:43 | 38.52237 | 99.33126 | 38221 ft | 386 kts | 295° |
| 2026-04-25 21:43 | 38.54795 | 99.27117 | 38232 ft | 384 kts | 296° |
| 2026-04-25 21:44 | 38.57323 | 99.21165 | 38241 ft | 379 kts | 296° |
| 2026-04-25 21:45 | 38.61110 | 99.12218 | 38231 ft | 388 kts | 295° |
| 2026-04-25 21:45 | 38.63679 | 99.06135 | 38241 ft | 394 kts | 295° |
| 2026-04-25 21:46 | 38.66262 | 99.00017 | 38227 ft | 386 kts | 295° |
| 2026-04-25 21:46 | 38.68799 | 98.93996 | 38241 ft | 385 kts | 295° |
| 2026-04-25 21:47 | 38.71347 | 98.87927 | 38237 ft | 388 kts | 295° |
| 2026-04-25 21:47 | 38.73912 | 98.81809 | 38243 ft | 390 kts | 295° |
| 2026-04-25 21:48 | 38.76459 | 98.75723 | 38223 ft | 389 kts | 294° |
| 2026-04-25 21:48 | 38.79013 | 98.69612 | 38235 ft | 388 kts | 295° |
| 2026-04-25 21:49 | 38.81562 | 98.63494 | 38231 ft | 388 kts | 295° |
| 2026-04-25 21:49 | 38.84098 | 98.57405 | 38253 ft | 387 kts | 295° |
| 2026-04-25 21:50 | 38.86628 | 98.51313 | 38264 ft | 387 kts | 295° |
| 2026-04-25 21:50 | 38.89161 | 98.45194 | 38247 ft | 389 kts | 295° |
| 2026-04-25 21:51 | 38.91703 | 98.39046 | 38250 ft | 390 kts | 294° |
| 2026-04-25 21:51 | 38.94229 | 98.32927 | 38247 ft | 391 kts | 294° |
| 2026-04-25 21:52 | 38.96772 | 98.26755 | 38236 ft | 391 kts | 294° |
| 2026-04-25 21:52 | 38.99313 | 98.20577 | 38240 ft | 391 kts | 294° |
| 2026-04-25 21:53 | 39.01849 | 98.14396 | 38242 ft | 390 kts | 294° |
| 2026-04-25 21:53 | 39.04382 | 98.08209 | 38247 ft | 391 kts | 294° |
| 2026-04-25 21:54 | 39.06920 | 98.02000 | 38244 ft | 392 kts | 294° |
| 2026-04-25 21:54 | 39.09458 | 97.95776 | 38245 ft | 393 kts | 294° |
| 2026-04-25 21:55 | 39.11989 | 97.89564 | 38236 ft | 392 kts | 294° |
| 2026-04-25 21:55 | 39.14496 | 97.83392 | 38232 ft | 390 kts | 294° |
| 2026-04-25 21:56 | 39.17017 | 97.77166 | 38243 ft | 393 kts | 294° |
| 2026-04-25 21:56 | 39.19552 | 97.70897 | 38239 ft | 395 kts | 294° |
| 2026-04-25 21:57 | 39.22087 | 97.64620 | 38241 ft | 395 kts | 294° |
| 2026-04-25 21:57 | 39.24623 | 97.58342 | 38241 ft | 394 kts | 294° |
| 2026-04-25 21:58 | 39.27159 | 97.52075 | 38241 ft | 393 kts | 294° |
| 2026-04-25 21:58 | 39.29671 | 97.45853 | 38239 ft | 393 kts | 294° |
| 2026-04-25 21:59 | 39.32187 | 97.39606 | 38229 ft | 391 kts | 294° |
| 2026-04-25 21:59 | 39.34694 | 97.33368 | 38232 ft | 391 kts | 293° |
| 2026-04-25 22:00 | 39.38449 | 97.23994 | 38236 ft | 391 kts | 293° |
| 2026-04-25 22:00 | 39.40933 | 97.17779 | 38229 ft | 391 kts | 293° |
| 2026-04-25 22:01 | 39.43428 | 97.11526 | 38216 ft | 391 kts | 293° |
| 2026-04-25 22:01 | 39.45499 | 97.06327 | 38215 ft | 390 kts | 293° |
| 2026-04-25 22:02 | 39.48408 | 96.99040 | 38224 ft | 388 kts | 293° |
| 2026-04-25 22:02 | 39.50904 | 96.92840 | 38208 ft | 387 kts | 293° |
| 2026-04-25 22:03 | 39.53367 | 96.86703 | 38204 ft | 386 kts | 293° |
| 2026-04-25 22:03 | 39.55831 | 96.80549 | 38203 ft | 384 kts | 293° |
| 2026-04-25 22:04 | 39.58286 | 96.74399 | 38217 ft | 384 kts | 293° |
| 2026-04-25 22:04 | 39.60743 | 96.68229 | 38216 ft | 385 kts | 293° |
| 2026-04-25 22:05 | 39.63200 | 96.62053 | 38201 ft | 385 kts | 293° |
| 2026-04-25 22:05 | 39.65643 | 96.55865 | 38203 ft | 385 kts | 293° |
| 2026-04-25 22:06 | 39.68077 | 96.49672 | 38185 ft | 385 kts | 293° |
| 2026-04-25 22:06 | 39.70489 | 96.43524 | 38184 ft | 384 kts | 293° |
| 2026-04-25 22:07 | 39.72520 | 96.38340 | 38187 ft | 384 kts | 293° |
| 2026-04-25 22:07 | 39.75332 | 96.31146 | 38179 ft | 384 kts | 293° |
| 2026-04-25 22:08 | 39.77751 | 96.24945 | 38170 ft | 385 kts | 293° |
| 2026-04-25 22:08 | 39.80171 | 96.18726 | 38162 ft | 385 kts | 293° |
| 2026-04-25 22:09 | 39.82585 | 96.12513 | 38150 ft | 384 kts | 293° |
| 2026-04-25 22:09 | 39.84988 | 96.06318 | 38148 ft | 383 kts | 293° |
| 2026-04-25 22:10 | 39.87364 | 96.00177 | 38149 ft | 381 kts | 292° |
| 2026-04-25 22:10 | 39.89742 | 95.94018 | 38139 ft | 380 kts | 292° |
| 2026-04-25 22:11 | 39.92111 | 95.87869 | 38145 ft | 379 kts | 292° |
| 2026-04-25 22:11 | 39.94475 | 95.81718 | 38143 ft | 379 kts | 292° |
| 2026-04-25 22:12 | 39.96836 | 95.75565 | 38140 ft | 380 kts | 292° |
| 2026-04-25 22:12 | 39.98798 | 95.70440 | 38135 ft | 380 kts | 292° |
| 2026-04-25 22:13 | 40.01544 | 95.63255 | 38139 ft | 381 kts | 292° |
| 2026-04-25 22:13 | 40.03905 | 95.57063 | 38133 ft | 381 kts | 292° |
| 2026-04-25 22:14 | 40.06263 | 95.50866 | 38133 ft | 381 kts | 292° |
| 2026-04-25 22:14 | 40.08622 | 95.44655 | 38124 ft | 382 kts | 292° |
| 2026-04-25 22:15 | 40.10977 | 95.38439 | 38131 ft | 382 kts | 292° |
| 2026-04-25 22:16 | 40.14505 | 95.29102 | 38126 ft | 382 kts | 292° |
| 2026-04-25 22:16 | 40.16860 | 95.22853 | 38121 ft | 383 kts | 291° |
| 2026-04-25 22:17 | 40.19215 | 95.16595 | 38121 ft | 384 kts | 291° |
| 2026-04-25 22:17 | 40.21578 | 95.10356 | 38118 ft | 385 kts | 292° |
| 2026-04-25 22:18 | 40.23980 | 95.04087 | 38122 ft | 385 kts | 292° |
| 2026-04-25 22:18 | 40.26379 | 94.97805 | 38113 ft | 386 kts | 292° |
| 2026-04-25 22:19 | 40.28778 | 94.91502 | 38109 ft | 386 kts | 292° |
| 2026-04-25 22:19 | 40.31460 | 94.85365 | 38113 ft | 391 kts | 299° |
| 2026-04-25 22:20 | 40.34807 | 94.79685 | 38115 ft | 395 kts | 302° |
| 2026-04-25 22:20 | 40.38247 | 94.74050 | 38107 ft | 396 kts | 303° |
| 2026-04-25 22:21 | 40.41687 | 94.68389 | 38106 ft | 397 kts | 303° |
| 2026-04-25 22:21 | 40.45100 | 94.62743 | 38104 ft | 397 kts | 302° |
| 2026-04-25 22:22 | 40.48531 | 94.57047 | 38106 ft | 398 kts | 303° |
| 2026-04-25 22:22 | 40.51969 | 94.51328 | 38100 ft | 398 kts | 303° |
| 2026-04-25 22:23 | 40.55405 | 94.45603 | 38098 ft | 399 kts | 303° |
| 2026-04-25 22:23 | 40.58264 | 94.40832 | 38103 ft | 399 kts | 303° |
| 2026-04-25 22:24 | 40.62259 | 94.34149 | 38101 ft | 399 kts | 303° |
| 2026-04-25 22:24 | 40.65117 | 94.29362 | 38111 ft | 400 kts | 303° |
| 2026-04-25 22:25 | 40.68555 | 94.23592 | 38114 ft | 400 kts | 303° |
| 2026-04-25 22:25 | 40.71990 | 94.17817 | 38108 ft | 401 kts | 303° |
| 2026-04-25 22:26 | 40.75428 | 94.12025 | 38119 ft | 401 kts | 303° |
| 2026-04-25 22:26 | 40.78870 | 94.06214 | 38121 ft | 402 kts | 303° |
| 2026-04-25 22:27 | 40.82312 | 94.00393 | 38125 ft | 402 kts | 303° |
| 2026-04-25 22:27 | 40.85757 | 93.94558 | 38128 ft | 403 kts | 303° |
| 2026-04-25 22:28 | 40.89180 | 93.88747 | 38124 ft | 403 kts | 303° |
| 2026-04-25 22:28 | 40.92649 | 93.82902 | 38134 ft | 405 kts | 304° |
| 2026-04-25 22:29 | 40.96307 | 93.77223 | 38131 ft | 406 kts | 305° |
| 2026-04-25 22:29 | 41.00001 | 93.71592 | 38137 ft | 404 kts | 305° |
| 2026-04-25 22:30 | 41.05480 | 93.63142 | 38139 ft | 402 kts | 305° |
| 2026-04-25 22:30 | 41.08501 | 93.58446 | 38142 ft | 402 kts | 305° |
| 2026-04-25 22:31 | 41.12710 | 93.51881 | 38140 ft | 403 kts | 305° |
| 2026-04-25 22:31 | 41.16341 | 93.46207 | 38150 ft | 404 kts | 305° |
| 2026-04-25 22:32 | 41.19982 | 93.40506 | 38147 ft | 405 kts | 305° |
| 2026-04-25 22:32 | 41.23628 | 93.34787 | 38142 ft | 406 kts | 305° |
| 2026-04-25 22:33 | 41.27280 | 93.29050 | 38144 ft | 407 kts | 305° |
| 2026-04-25 22:33 | 41.30937 | 93.23292 | 38144 ft | 407 kts | 305° |
| 2026-04-25 22:34 | 41.34573 | 93.17560 | 38145 ft | 408 kts | 305° |
| 2026-04-25 22:34 | 41.38230 | 93.11780 | 38149 ft | 408 kts | 305° |
| 2026-04-25 22:35 | 41.41882 | 93.05998 | 38152 ft | 408 kts | 305° |
| 2026-04-25 22:35 | 41.45509 | 93.00244 | 38154 ft | 408 kts | 305° |
| 2026-04-25 22:36 | 41.49157 | 92.94445 | 38149 ft | 408 kts | 305° |
| 2026-04-25 22:36 | 41.52803 | 92.88640 | 38150 ft | 408 kts | 305° |
| 2026-04-25 22:37 | 41.56452 | 92.82818 | 38152 ft | 408 kts | 305° |
| 2026-04-25 22:37 | 41.60096 | 92.76992 | 38154 ft | 408 kts | 305° |
| 2026-04-25 22:38 | 41.63738 | 92.71158 | 38147 ft | 408 kts | 305° |
| 2026-04-25 22:38 | 41.67354 | 92.65355 | 38148 ft | 408 kts | 305° |
| 2026-04-25 22:39 | 41.70989 | 92.59511 | 38135 ft | 408 kts | 304° |
| 2026-04-25 22:39 | 41.74622 | 92.53658 | 38141 ft | 409 kts | 304° |
| 2026-04-25 22:40 | 41.78262 | 92.47782 | 38142 ft | 409 kts | 304° |
| 2026-04-25 22:40 | 41.81904 | 92.41891 | 38164 ft | 410 kts | 304° |
| 2026-04-25 22:41 | 41.85541 | 92.35997 | 38149 ft | 410 kts | 304° |
| 2026-04-25 22:41 | 41.89161 | 92.30119 | 38144 ft | 411 kts | 304° |
| 2026-04-25 22:42 | 41.92802 | 92.24195 | 38146 ft | 412 kts | 304° |
| 2026-04-25 22:42 | 41.96445 | 92.18255 | 38149 ft | 412 kts | 304° |
| 2026-04-25 22:43 | 42.00100 | 92.12285 | 38145 ft | 413 kts | 304° |
| 2026-04-25 22:43 | 42.03731 | 92.06342 | 38150 ft | 413 kts | 304° |
| 2026-04-25 22:44 | 42.07377 | 92.00363 | 38153 ft | 414 kts | 304° |
| 2026-04-25 22:44 | 42.11025 | 91.94367 | 38155 ft | 414 kts | 304° |
| 2026-04-25 22:45 | 42.14674 | 91.88358 | 38156 ft | 414 kts | 304° |
| 2026-04-25 22:45 | 42.18320 | 91.82344 | 38155 ft | 414 kts | 304° |
| 2026-04-25 22:46 | 42.22156 | 91.76515 | 38162 ft | 419 kts | 312° |
| 2026-04-25 22:46 | 42.26712 | 91.71526 | 38157 ft | 425 kts | 320° |
| 2026-04-25 22:47 | 42.31767 | 91.67308 | 38157 ft | 428 kts | 323° |
| 2026-04-25 22:47 | 42.36883 | 91.63201 | 38155 ft | 428 kts | 323° |
| 2026-04-25 22:48 | 42.41983 | 91.59065 | 38155 ft | 427 kts | 323° |
| 2026-04-25 22:48 | 42.47066 | 91.54899 | 38152 ft | 427 kts | 322° |
| 2026-04-25 22:49 | 42.52152 | 91.50712 | 38148 ft | 427 kts | 322° |
| 2026-04-25 22:49 | 42.57235 | 91.46518 | 38144 ft | 428 kts | 322° |
| 2026-04-25 22:50 | 42.62289 | 91.42341 | 38142 ft | 428 kts | 322° |
| 2026-04-25 22:50 | 42.67391 | 91.38116 | 38140 ft | 430 kts | 322° |
| 2026-04-25 22:51 | 42.72510 | 91.33869 | 38139 ft | 431 kts | 322° |
| 2026-04-25 22:51 | 42.77649 | 91.29598 | 38137 ft | 433 kts | 322° |
| 2026-04-25 22:52 | 42.82809 | 91.25301 | 38138 ft | 435 kts | 323° |
| 2026-04-25 22:52 | 42.87064 | 91.21637 | 38141 ft | 434 kts | 319° |
| 2026-04-25 22:53 | 42.92296 | 91.15384 | 38138 ft | 429 kts | 310° |
| 2026-04-25 22:53 | 42.96504 | 91.09600 | 38143 ft | 430 kts | 310° |
| 2026-04-25 22:54 | 43.00728 | 91.03797 | 38149 ft | 431 kts | 310° |
| 2026-04-25 22:54 | 43.04980 | 90.97983 | 38154 ft | 432 kts | 310° |
| 2026-04-25 22:55 | 43.09242 | 90.92158 | 38161 ft | 433 kts | 310° |
| 2026-04-25 22:55 | 43.13500 | 90.86329 | 38175 ft | 432 kts | 310° |
| 2026-04-25 22:56 | 43.17751 | 90.80495 | 38186 ft | 432 kts | 310° |
| 2026-04-25 22:56 | 43.21986 | 90.74670 | 38198 ft | 431 kts | 310° |
| 2026-04-25 22:57 | 43.26205 | 90.68856 | 38205 ft | 429 kts | 310° |
| 2026-04-25 22:57 | 43.30384 | 90.63083 | 38218 ft | 428 kts | 310° |
| 2026-04-25 22:58 | 43.34571 | 90.57288 | 38231 ft | 426 kts | 310° |
| 2026-04-25 22:58 | 43.38719 | 90.51487 | 38246 ft | 424 kts | 309° |
| 2026-04-25 22:59 | 43.42717 | 90.45536 | 38267 ft | 422 kts | 308° |
| 2026-04-25 22:59 | 43.46678 | 90.39571 | 38279 ft | 422 kts | 308° |
| 2026-04-25 23:00 | 43.50652 | 90.33610 | 38293 ft | 422 kts | 308° |
| 2026-04-25 23:00 | 43.54600 | 90.27702 | 38306 ft | 420 kts | 308° |
| 2026-04-25 23:01 | 43.58552 | 90.21775 | 38303 ft | 419 kts | 308° |
| 2026-04-25 23:01 | 43.62492 | 90.15852 | 38308 ft | 418 kts | 308° |
| 2026-04-25 23:02 | 43.66429 | 90.09920 | 38318 ft | 419 kts | 308° |
| 2026-04-25 23:02 | 43.70384 | 90.03979 | 38328 ft | 420 kts | 308° |
| 2026-04-25 23:03 | 43.74363 | 89.98037 | 38321 ft | 421 kts | 308° |
| 2026-04-25 23:03 | 43.78313 | 89.92122 | 38315 ft | 420 kts | 308° |
| 2026-04-25 23:04 | 43.81636 | 89.87132 | 38318 ft | 420 kts | 308° |
| 2026-04-25 23:04 | 43.86242 | 89.80196 | 38311 ft | 420 kts | 308° |
| 2026-04-25 23:05 | 43.90197 | 89.74228 | 38310 ft | 420 kts | 308° |
| 2026-04-25 23:05 | 43.94150 | 89.68252 | 38310 ft | 420 kts | 308° |
| 2026-04-25 23:06 | 43.97638 | 89.61862 | 38306 ft | 413 kts | 294° |
| 2026-04-25 23:06 | 43.99662 | 89.54452 | 38295 ft | 410 kts | 279° |
| 2026-04-25 23:07 | 44.00576 | 89.46641 | 38303 ft | 410 kts | 277° |
| 2026-04-25 23:07 | 44.01416 | 89.38830 | 38302 ft | 412 kts | 277° |
| 2026-04-25 23:08 | 44.02292 | 89.30962 | 38303 ft | 412 kts | 278° |
| 2026-04-25 23:08 | 44.03187 | 89.23074 | 38311 ft | 413 kts | 278° |
| 2026-04-25 23:09 | 44.04080 | 89.15189 | 38307 ft | 413 kts | 278° |
| 2026-04-25 23:09 | 44.04968 | 89.07302 | 38307 ft | 413 kts | 278° |
| 2026-04-25 23:10 | 44.05848 | 88.99423 | 38306 ft | 413 kts | 278° |
| 2026-04-25 23:10 | 44.06725 | 88.91531 | 38306 ft | 413 kts | 277° |
| 2026-04-25 23:11 | 44.07450 | 88.84963 | 38309 ft | 413 kts | 277° |
| 2026-04-25 23:11 | 44.08357 | 88.77065 | 38307 ft | 413 kts | 278° |
| 2026-04-25 23:12 | 44.09285 | 88.69176 | 38309 ft | 414 kts | 278° |
| 2026-04-25 23:12 | 44.10208 | 88.61262 | 38310 ft | 414 kts | 278° |
| 2026-04-25 23:13 | 44.11120 | 88.53350 | 38307 ft | 414 kts | 278° |
| 2026-04-25 23:13 | 44.12021 | 88.45480 | 38310 ft | 414 kts | 278° |
| 2026-04-25 23:14 | 44.12928 | 88.37500 | 38317 ft | 415 kts | 278° |
| 2026-04-25 23:14 | 44.13823 | 88.29570 | 38315 ft | 415 kts | 278° |
| 2026-04-25 23:15 | 44.14711 | 88.21665 | 38306 ft | 415 kts | 278° |
| 2026-04-25 23:15 | 44.15598 | 88.13711 | 38306 ft | 416 kts | 278° |
| 2026-04-25 23:16 | 44.16481 | 88.05750 | 38300 ft | 416 kts | 277° |
| 2026-04-25 23:16 | 44.16615 | 88.01756 | 38297 ft | 413 kts | 264° |
| 2026-04-25 23:16 | 44.16037 | 87.97824 | 38310 ft | 415 kts | 254° |
| 2026-04-25 23:17 | 44.13374 | 87.90687 | 38316 ft | 421 kts | 236° |
| 2026-04-25 23:17 | 44.09771 | 87.84213 | 38303 ft | 425 kts | 235° |
| 2026-04-25 23:18 | 44.06167 | 87.77737 | 38300 ft | 426 kts | 236° |
| 2026-04-25 23:18 | 44.02576 | 87.71169 | 38312 ft | 426 kts | 236° |
| 2026-04-25 23:19 | 43.98996 | 87.64597 | 38307 ft | 426 kts | 236° |
| 2026-04-25 23:19 | 43.95422 | 87.58049 | 38306 ft | 425 kts | 236° |
| 2026-04-25 23:20 | 43.91847 | 87.51511 | 38308 ft | 424 kts | 237° |
| 2026-04-25 23:20 | 43.88618 | 87.44775 | 38315 ft | 421 kts | 240° |
| 2026-04-25 23:21 | 43.85473 | 87.37922 | 38317 ft | 421 kts | 240° |
| 2026-04-25 23:21 | 43.82312 | 87.31079 | 38313 ft | 422 kts | 240° |
| 2026-04-25 23:22 | 43.79139 | 87.24252 | 38315 ft | 423 kts | 240° |
| 2026-04-25 23:23 | 43.74354 | 87.13989 | 38306 ft | 423 kts | 240° |
| 2026-04-25 23:23 | 43.71139 | 87.07142 | 38334 ft | 424 kts | 239° |
| 2026-04-25 23:24 | 43.67919 | 87.00320 | 38333 ft | 424 kts | 239° |
| 2026-04-25 23:24 | 43.64689 | 86.93489 | 38335 ft | 424 kts | 239° |
| 2026-04-25 23:25 | 43.61456 | 86.86663 | 38344 ft | 424 kts | 239° |
| 2026-04-25 23:25 | 43.58247 | 86.79900 | 38341 ft | 424 kts | 239° |
| 2026-04-25 23:26 | 43.55012 | 86.73099 | 38349 ft | 424 kts | 239° |
| 2026-04-25 23:26 | 43.51750 | 86.66305 | 38356 ft | 425 kts | 239° |
| 2026-04-25 23:27 | 43.48455 | 86.59514 | 38365 ft | 426 kts | 239° |
| 2026-04-25 23:27 | 43.45163 | 86.52731 | 38372 ft | 426 kts | 239° |
| 2026-04-25 23:28 | 43.41892 | 86.45996 | 38355 ft | 425 kts | 239° |
| 2026-04-25 23:28 | 43.38612 | 86.39224 | 38337 ft | 425 kts | 239° |
| 2026-04-25 23:29 | 43.35352 | 86.32477 | 38414 ft | 422 kts | 239° |
| 2026-04-25 23:29 | 43.32081 | 86.25722 | 38396 ft | 426 kts | 239° |
| 2026-04-25 23:30 | 43.28779 | 86.18926 | 38409 ft | 428 kts | 239° |
| 2026-04-25 23:30 | 43.25473 | 86.12121 | 38434 ft | 430 kts | 239° |
| 2026-04-25 23:31 | 43.22165 | 86.05322 | 38387 ft | 430 kts | 239° |
| 2026-04-25 23:31 | 43.19484 | 85.98156 | 38430 ft | 421 kts | 257° |
| 2026-04-25 23:32 | 43.18944 | 85.90213 | 38419 ft | 420 kts | 276° |
| 2026-04-25 23:32 | 43.19812 | 85.82236 | 38437 ft | 423 kts | 278° |
| 2026-04-25 23:33 | 43.20735 | 85.74301 | 38432 ft | 425 kts | 278° |
| 2026-04-25 23:33 | 43.21623 | 85.66290 | 38396 ft | 424 kts | 278° |
| 2026-04-25 23:34 | 43.22474 | 85.58314 | 38420 ft | 422 kts | 278° |
| 2026-04-25 23:34 | 43.23308 | 85.50328 | 38431 ft | 423 kts | 277° |
| 2026-04-25 23:35 | 43.24137 | 85.42329 | 38430 ft | 423 kts | 277° |
| 2026-04-25 23:35 | 43.24964 | 85.34326 | 38436 ft | 424 kts | 277° |
| 2026-04-25 23:36 | 43.25787 | 85.26308 | 38425 ft | 425 kts | 277° |
| 2026-04-25 23:36 | 43.26600 | 85.18319 | 38413 ft | 425 kts | 277° |
| 2026-04-25 23:37 | 43.27412 | 85.10292 | 38440 ft | 424 kts | 277° |
| 2026-04-25 23:37 | 43.28217 | 85.02276 | 38433 ft | 425 kts | 277° |
| 2026-04-25 23:38 | 43.29019 | 84.94238 | 38429 ft | 424 kts | 277° |
| 2026-04-25 23:38 | 43.29811 | 84.86207 | 38427 ft | 425 kts | 277° |
| 2026-04-25 23:39 | 43.30602 | 84.78160 | 38423 ft | 426 kts | 277° |
| 2026-04-25 23:39 | 43.31383 | 84.70149 | 38430 ft | 426 kts | 277° |
| 2026-04-25 23:40 | 43.32162 | 84.62092 | 38420 ft | 426 kts | 278° |
| 2026-04-25 23:40 | 43.32937 | 84.54026 | 38424 ft | 425 kts | 278° |
| 2026-04-25 23:41 | 43.33705 | 84.45971 | 38427 ft | 425 kts | 278° |
| 2026-04-25 23:41 | 43.34467 | 84.37921 | 38419 ft | 425 kts | 278° |
| 2026-04-25 23:42 | 43.35213 | 84.29861 | 38414 ft | 425 kts | 277° |
| 2026-04-25 23:42 | 43.35934 | 84.21859 | 38405 ft | 425 kts | 277° |
| 2026-04-25 23:43 | 43.36661 | 84.13741 | 38399 ft | 425 kts | 277° |
| 2026-04-25 23:43 | 43.37379 | 84.05672 | 38393 ft | 425 kts | 277° |
| 2026-04-25 23:44 | 43.38087 | 83.97665 | 38390 ft | 425 kts | 277° |
| 2026-04-25 23:44 | 43.38794 | 83.89607 | 38384 ft | 424 kts | 277° |
| 2026-04-25 23:45 | 43.39495 | 83.81548 | 38380 ft | 424 kts | 277° |
| 2026-04-25 23:45 | 43.40190 | 83.73493 | 38370 ft | 424 kts | 277° |
| 2026-04-25 23:46 | 43.40881 | 83.65421 | 38370 ft | 424 kts | 277° |
| 2026-04-25 23:46 | 43.41565 | 83.57356 | 38361 ft | 425 kts | 277° |
| 2026-04-25 23:47 | 43.42245 | 83.49272 | 38354 ft | 425 kts | 277° |
| 2026-04-25 23:47 | 43.42917 | 83.41229 | 38352 ft | 426 kts | 277° |
| 2026-04-25 23:48 | 43.43424 | 83.33111 | 38345 ft | 426 kts | 274° |
| 2026-04-25 23:48 | 43.43711 | 83.24949 | 38350 ft | 427 kts | 273° |
| 2026-04-25 23:49 | 43.43981 | 83.16781 | 38343 ft | 428 kts | 273° |
| 2026-04-25 23:49 | 43.44261 | 83.08588 | 38343 ft | 428 kts | 273° |
| 2026-04-25 23:50 | 43.44544 | 83.00388 | 38350 ft | 429 kts | 273° |
| 2026-04-25 23:50 | 43.44823 | 82.92189 | 38349 ft | 429 kts | 273° |
| 2026-04-25 23:51 | 43.45098 | 82.83963 | 38344 ft | 430 kts | 273° |
| 2026-04-25 23:51 | 43.45366 | 82.75736 | 38352 ft | 430 kts | 273° |
| 2026-04-25 23:52 | 43.45626 | 82.67549 | 38346 ft | 431 kts | 273° |
| 2026-04-25 23:52 | 43.45885 | 82.59234 | 38319 ft | 432 kts | 273° |
| 2026-04-25 23:53 | 43.46137 | 82.50959 | 38255 ft | 433 kts | 273° |
| 2026-04-25 23:53 | 43.46382 | 82.42681 | 38252 ft | 433 kts | 273° |
| 2026-04-25 23:54 | 43.46622 | 82.34405 | 38239 ft | 433 kts | 273° |
| 2026-04-25 23:54 | 43.46817 | 82.27522 | 38247 ft | 433 kts | 273° |
| 2026-04-25 23:55 | 43.47082 | 82.17891 | 38229 ft | 433 kts | 273° |
| 2026-04-25 23:55 | 43.47305 | 82.09593 | 38237 ft | 434 kts | 273° |
| 2026-04-25 23:56 | 43.47485 | 82.02686 | 38226 ft | 435 kts | 273° |
| 2026-04-25 23:56 | 43.47700 | 81.94285 | 38235 ft | 444 kts | 273° |
| 2026-04-25 23:57 | 43.47912 | 81.85707 | 38237 ft | 451 kts | 273° |
| 2026-04-25 23:57 | 43.48120 | 81.77041 | 38220 ft | 452 kts | 273° |
| 2026-04-25 23:58 | 43.48321 | 81.68408 | 38216 ft | 450 kts | 272° |
| 2026-04-25 23:58 | 43.48505 | 81.59798 | 38218 ft | 449 kts | 272° |
| 2026-04-25 23:59 | 43.48681 | 81.51230 | 38209 ft | 447 kts | 272° |
| 2026-04-25 23:59 | 43.48850 | 81.42673 | 38213 ft | 446 kts | 272° |
| 2026-04-26 00:00 | 43.49014 | 81.34122 | 38224 ft | 447 kts | 272° |
| 2026-04-26 00:00 | 43.49172 | 81.25616 | 38205 ft | 448 kts | 272° |
| 2026-04-26 00:01 | 43.49323 | 81.17025 | 38212 ft | 448 kts | 272° |
| 2026-04-26 00:01 | 43.49470 | 81.08437 | 38199 ft | 449 kts | 272° |
| 2026-04-26 00:02 | 43.49609 | 80.99821 | 38210 ft | 450 kts | 272° |
| 2026-04-26 00:02 | 43.49743 | 80.91199 | 38205 ft | 450 kts | 272° |
| 2026-04-26 00:03 | 43.49870 | 80.82569 | 38209 ft | 450 kts | 272° |
| 2026-04-26 00:03 | 43.49991 | 80.74001 | 38196 ft | 450 kts | 272° |
| 2026-04-26 00:04 | 43.50240 | 80.65391 | 38211 ft | 450 kts | 274° |
| 2026-04-26 00:04 | 43.50610 | 80.56800 | 38197 ft | 449 kts | 274° |
| 2026-04-26 00:05 | 43.50963 | 80.48203 | 38206 ft | 449 kts | 274° |
| 2026-04-26 00:05 | 43.51289 | 80.39593 | 38203 ft | 449 kts | 274° |
| 2026-04-26 00:06 | 43.51599 | 80.31036 | 38188 ft | 450 kts | 274° |
| 2026-04-26 00:06 | 43.51905 | 80.22429 | 38187 ft | 450 kts | 274° |
| 2026-04-26 00:07 | 43.52204 | 80.13828 | 38185 ft | 450 kts | 274° |
| 2026-04-26 00:07 | 43.52499 | 80.05205 | 38198 ft | 450 kts | 274° |
| 2026-04-26 00:08 | 43.52786 | 79.96582 | 38191 ft | 450 kts | 274° |
| 2026-04-26 00:08 | 43.53067 | 79.88018 | 38175 ft | 450 kts | 274° |
| 2026-04-26 00:09 | 43.53341 | 79.79406 | 38189 ft | 450 kts | 274° |
| 2026-04-26 00:09 | 43.53605 | 79.70776 | 38171 ft | 450 kts | 274° |
| 2026-04-26 00:10 | 43.53862 | 79.62156 | 38188 ft | 450 kts | 274° |
| 2026-04-26 00:10 | 43.54113 | 79.53534 | 38170 ft | 450 kts | 274° |
| 2026-04-26 00:11 | 43.54358 | 79.44920 | 38171 ft | 450 kts | 274° |
| 2026-04-26 00:11 | 43.54597 | 79.36294 | 38175 ft | 450 kts | 274° |
| 2026-04-26 00:12 | 43.54830 | 79.27679 | 38180 ft | 450 kts | 274° |
| 2026-04-26 00:12 | 43.55055 | 79.19052 | 38177 ft | 450 kts | 274° |
| 2026-04-26 00:13 | 43.55273 | 79.10412 | 38168 ft | 450 kts | 274° |
| 2026-04-26 00:13 | 43.55484 | 79.01843 | 38165 ft | 450 kts | 274° |
| 2026-04-26 00:14 | 43.55690 | 78.93218 | 38162 ft | 450 kts | 274° |
| 2026-04-26 00:14 | 43.55889 | 78.84590 | 38167 ft | 450 kts | 273° |
| 2026-04-26 00:15 | 43.56082 | 78.75955 | 38156 ft | 450 kts | 274° |
| 2026-04-26 00:15 | 43.56269 | 78.67325 | 38153 ft | 450 kts | 274° |
| 2026-04-26 00:16 | 43.56450 | 78.58683 | 38145 ft | 450 kts | 273° |
| 2026-04-26 00:16 | 43.56622 | 78.50112 | 38143 ft | 449 kts | 273° |
| 2026-04-26 00:17 | 43.56789 | 78.41500 | 38140 ft | 449 kts | 273° |
| 2026-04-26 00:17 | 43.56949 | 78.32894 | 38135 ft | 449 kts | 273° |
| 2026-04-26 00:18 | 43.57104 | 78.24274 | 38132 ft | 449 kts | 273° |
| 2026-04-26 00:18 | 43.57251 | 78.15672 | 38124 ft | 449 kts | 273° |
| 2026-04-26 00:19 | 43.57393 | 78.07066 | 38125 ft | 449 kts | 273° |
| 2026-04-26 00:19 | 43.57532 | 77.98457 | 38121 ft | 449 kts | 273° |
| 2026-04-26 00:20 | 43.57667 | 77.89854 | 38122 ft | 449 kts | 273° |
| 2026-04-26 00:20 | 43.57796 | 77.81302 | 38118 ft | 448 kts | 273° |
| 2026-04-26 00:21 | 43.57918 | 77.72702 | 38118 ft | 448 kts | 273° |
| 2026-04-26 00:21 | 43.58035 | 77.64108 | 38119 ft | 448 kts | 273° |
| 2026-04-26 00:22 | 43.58036 | 77.55527 | 38110 ft | 448 kts | 265° |
| 2026-04-26 00:22 | 43.56340 | 77.47220 | 38127 ft | 454 kts | 248° |
| 2026-04-26 00:23 | 43.53004 | 77.39760 | 38126 ft | 459 kts | 238° |
| 2026-04-26 00:23 | 43.49388 | 77.32509 | 38123 ft | 459 kts | 239° |
| 2026-04-26 00:24 | 43.45829 | 77.25209 | 38128 ft | 459 kts | 239° |
| 2026-04-26 00:24 | 43.42324 | 77.17941 | 38128 ft | 459 kts | 239° |
| 2026-04-26 00:25 | 43.38630 | 77.10788 | 38132 ft | 461 kts | 232° |
| 2026-04-26 00:25 | 43.34012 | 77.04611 | 38124 ft | 466 kts | 221° |
| 2026-04-26 00:26 | 43.28760 | 76.99371 | 38137 ft | 467 kts | 218° |
| 2026-04-26 00:26 | 43.23479 | 76.94184 | 38129 ft | 467 kts | 219° |
| 2026-04-26 00:27 | 43.18240 | 76.88927 | 38141 ft | 466 kts | 220° |
| 2026-04-26 00:27 | 43.13039 | 76.83585 | 38150 ft | 466 kts | 220° |
| 2026-04-26 00:28 | 43.07855 | 76.78262 | 38165 ft | 466 kts | 220° |
| 2026-04-26 00:28 | 43.02652 | 76.72949 | 38179 ft | 466 kts | 220° |
| 2026-04-26 00:29 | 42.97451 | 76.67653 | 38178 ft | 466 kts | 220° |
| 2026-04-26 00:29 | 42.92493 | 76.62022 | 38199 ft | 459 kts | 231° |
| 2026-04-26 00:30 | 42.88881 | 76.54934 | 38191 ft | 452 kts | 247° |
| 2026-04-26 00:30 | 42.86292 | 76.47156 | 38198 ft | 450 kts | 249° |
| 2026-04-26 00:31 | 42.83759 | 76.39404 | 38183 ft | 451 kts | 249° |
| 2026-04-26 00:31 | 42.81165 | 76.31604 | 38181 ft | 453 kts | 248° |
| 2026-04-26 00:32 | 42.78532 | 76.23794 | 38165 ft | 453 kts | 248° |
| 2026-04-26 00:32 | 42.74573 | 76.12121 | 38167 ft | 453 kts | 248° |
| 2026-04-26 00:33 | 42.71929 | 76.04348 | 38164 ft | 452 kts | 248° |
| 2026-04-26 00:33 | 42.69287 | 75.96599 | 38180 ft | 451 kts | 248° |
| 2026-04-26 00:34 | 42.66642 | 75.88863 | 38171 ft | 451 kts | 248° |
| 2026-04-26 00:34 | 42.63991 | 75.81132 | 38161 ft | 450 kts | 248° |
| 2026-04-26 00:35 | 42.61345 | 75.73433 | 38138 ft | 448 kts | 248° |
| 2026-04-26 00:35 | 42.58722 | 75.65827 | 38141 ft | 447 kts | 248° |
| 2026-04-26 00:36 | 42.56084 | 75.58200 | 38164 ft | 447 kts | 248° |
| 2026-04-26 00:36 | 42.53436 | 75.50561 | 38177 ft | 448 kts | 248° |
| 2026-04-26 00:37 | 42.50775 | 75.42905 | 38165 ft | 450 kts | 248° |
| 2026-04-26 00:37 | 42.48106 | 75.35248 | 38167 ft | 449 kts | 248° |
| 2026-04-26 00:38 | 42.45884 | 75.28887 | 38166 ft | 449 kts | 248° |
| 2026-04-26 00:38 | 42.43211 | 75.21252 | 38190 ft | 448 kts | 248° |
| 2026-04-26 00:39 | 42.40996 | 75.13418 | 38199 ft | 444 kts | 254° |
| 2026-04-26 00:39 | 42.38996 | 75.05507 | 38211 ft | 444 kts | 254° |
| 2026-04-26 00:40 | 42.36986 | 74.97605 | 38229 ft | 443 kts | 254° |
| 2026-04-26 00:40 | 42.34954 | 74.89713 | 38235 ft | 444 kts | 254° |
| 2026-04-26 00:41 | 42.32927 | 74.81899 | 38231 ft | 443 kts | 253° |
| 2026-04-26 00:41 | 42.30870 | 74.73998 | 38242 ft | 443 kts | 254° |
| 2026-04-26 00:42 | 42.28829 | 74.66178 | 38243 ft | 443 kts | 253° |
| 2026-04-26 00:42 | 42.26774 | 74.58336 | 38252 ft | 443 kts | 253° |
| 2026-04-26 00:43 | 42.24716 | 74.50501 | 38250 ft | 443 kts | 253° |
| 2026-04-26 00:43 | 42.22654 | 74.42679 | 38255 ft | 442 kts | 253° |
| 2026-04-26 00:44 | 42.20586 | 74.34861 | 38271 ft | 441 kts | 253° |
| 2026-04-26 00:44 | 42.18518 | 74.27060 | 38250 ft | 440 kts | 253° |
| 2026-04-26 00:45 | 42.16460 | 74.19331 | 38247 ft | 441 kts | 253° |
| 2026-04-26 00:45 | 42.14385 | 74.11560 | 38242 ft | 440 kts | 253° |
| 2026-04-26 00:46 | 42.12305 | 74.03795 | 38261 ft | 439 kts | 253° |
| 2026-04-26 00:46 | 42.10226 | 73.96055 | 38248 ft | 439 kts | 253° |
| 2026-04-26 00:47 | 42.08145 | 73.88330 | 38254 ft | 438 kts | 254° |
| 2026-04-26 00:47 | 42.06059 | 73.80610 | 38244 ft | 438 kts | 254° |
| 2026-04-26 00:48 | 42.04015 | 73.72951 | 38237 ft | 437 kts | 255° |
| 2026-04-26 00:48 | 42.02068 | 73.65212 | 38236 ft | 436 kts | 255° |
| 2026-04-26 00:49 | 42.00134 | 73.57476 | 38233 ft | 435 kts | 255° |
| 2026-04-26 00:49 | 41.98189 | 73.49782 | 38227 ft | 434 kts | 255° |
| 2026-04-26 00:50 | 41.96238 | 73.42113 | 38224 ft | 433 kts | 255° |
| 2026-04-26 00:50 | 41.94286 | 73.34476 | 38222 ft | 431 kts | 255° |
| 2026-04-26 00:51 | 41.92332 | 73.26858 | 38216 ft | 432 kts | 255° |
| 2026-04-26 00:51 | 41.90375 | 73.19241 | 38219 ft | 431 kts | 255° |
| 2026-04-26 00:52 | 41.88413 | 73.11634 | 38207 ft | 431 kts | 255° |
| 2026-04-26 00:52 | 41.86466 | 73.04105 | 38214 ft | 429 kts | 255° |
| 2026-04-26 00:53 | 41.84510 | 72.96563 | 38220 ft | 428 kts | 255° |
| 2026-04-26 00:53 | 41.82548 | 72.89030 | 38203 ft | 427 kts | 255° |
| 2026-04-26 00:54 | 41.80597 | 72.81554 | 38203 ft | 426 kts | 255° |
| 2026-04-26 00:54 | 41.78640 | 72.74070 | 38206 ft | 425 kts | 256° |
| 2026-04-26 00:55 | 41.76679 | 72.66592 | 38205 ft | 424 kts | 255° |
| 2026-04-26 00:55 | 41.74720 | 72.59144 | 38208 ft | 424 kts | 255° |
| 2026-04-26 00:56 | 41.72757 | 72.51707 | 38213 ft | 423 kts | 255° |
| 2026-04-26 00:56 | 41.70789 | 72.44272 | 38209 ft | 423 kts | 255° |
| 2026-04-26 00:57 | 41.68816 | 72.36848 | 38202 ft | 423 kts | 255° |
| 2026-04-26 00:57 | 41.66839 | 72.29425 | 38213 ft | 422 kts | 255° |
| 2026-04-26 00:58 | 41.64868 | 72.22046 | 38193 ft | 420 kts | 255° |
| 2026-04-26 00:58 | 41.62911 | 72.14738 | 38206 ft | 420 kts | 255° |
| 2026-04-26 00:59 | 41.60938 | 72.07396 | 38184 ft | 419 kts | 255° |
| 2026-04-26 00:59 | 41.58961 | 72.00060 | 38173 ft | 418 kts | 255° |
| 2026-04-26 01:00 | 41.56988 | 71.92765 | 38181 ft | 416 kts | 255° |
| 2026-04-26 01:00 | 41.55018 | 71.85499 | 38172 ft | 415 kts | 255° |
| 2026-04-26 01:01 | 41.53047 | 71.78248 | 38164 ft | 415 kts | 255° |
| 2026-04-26 01:01 | 41.51073 | 71.71011 | 38162 ft | 413 kts | 255° |
| 2026-04-26 01:02 | 41.49107 | 71.63821 | 38160 ft | 413 kts | 255° |
| 2026-04-26 01:02 | 41.47138 | 71.56641 | 38162 ft | 412 kts | 255° |
| 2026-04-26 01:03 | 41.45158 | 71.49440 | 38157 ft | 411 kts | 254° |
| 2026-04-26 01:03 | 41.43227 | 71.42447 | 37867 ft | 397 kts | 254° |
| 2026-04-26 01:04 | 41.42278 | 71.39011 | 37564 ft | 393 kts | 254° |
| 2026-04-26 01:04 | 41.41335 | 71.35602 | 37144 ft | 392 kts | 254° |
| 2026-04-26 01:04 | 41.40390 | 71.32187 | 36720 ft | 392 kts | 253° |
| 2026-04-26 01:04 | 41.39447 | 71.28790 | 36352 ft | 390 kts | 253° |
| 2026-04-26 01:05 | 41.38507 | 71.25413 | 36009 ft | 388 kts | 253° |
| 2026-04-26 01:05 | 41.37570 | 71.22051 | 35657 ft | 387 kts | 253° |
| 2026-04-26 01:05 | 41.36631 | 71.18683 | 35302 ft | 386 kts | 253° |
| 2026-04-26 01:05 | 41.35697 | 71.15336 | 34921 ft | 386 kts | 253° |
| 2026-04-26 01:06 | 41.34761 | 71.11983 | 34568 ft | 386 kts | 253° |
| 2026-04-26 01:06 | 41.33826 | 71.08639 | 34224 ft | 385 kts | 253° |
| 2026-04-26 01:06 | 41.32889 | 71.05298 | 33791 ft | 385 kts | 253° |
| 2026-04-26 01:06 | 41.31966 | 71.02010 | 33472 ft | 383 kts | 253° |
| 2026-04-26 01:07 | 41.31026 | 70.98660 | 33152 ft | 381 kts | 252° |
| 2026-04-26 01:07 | 41.30100 | 70.95364 | 32854 ft | 379 kts | 252° |
| 2026-04-26 01:07 | 41.29189 | 70.92129 | 32555 ft | 378 kts | 252° |
| 2026-04-26 01:07 | 41.28268 | 70.88860 | 32230 ft | 377 kts | 252° |
| 2026-04-26 01:08 | 41.27348 | 70.85600 | 31918 ft | 376 kts | 252° |
| 2026-04-26 01:08 | 41.26433 | 70.82359 | 31603 ft | 374 kts | 252° |
| 2026-04-26 01:08 | 41.25516 | 70.79119 | 31303 ft | 373 kts | 251° |
| 2026-04-26 01:08 | 41.24604 | 70.75902 | 31000 ft | 372 kts | 251° |
| 2026-04-26 01:09 | 41.23690 | 70.72682 | 30692 ft | 372 kts | 251° |
| 2026-04-26 01:09 | 41.22779 | 70.69476 | 30416 ft | 371 kts | 251° |
| 2026-04-26 01:09 | 41.21868 | 70.66272 | 30119 ft | 369 kts | 251° |
| 2026-04-26 01:09 | 41.20966 | 70.63104 | 29705 ft | 365 kts | 251° |
| 2026-04-26 01:10 | 41.20068 | 70.59957 | 29246 ft | 363 kts | 251° |
| 2026-04-26 01:10 | 41.19178 | 70.56838 | 28792 ft | 360 kts | 251° |
| 2026-04-26 01:10 | 41.18292 | 70.53740 | 28335 ft | 358 kts | 251° |
| 2026-04-26 01:10 | 41.17411 | 70.50663 | 27888 ft | 356 kts | 251° |
| 2026-04-26 01:11 | 41.16545 | 70.47637 | 27454 ft | 354 kts | 250° |
| 2026-04-26 01:11 | 41.15671 | 70.44589 | 27006 ft | 352 kts | 250° |
| 2026-04-26 01:11 | 41.14800 | 70.41553 | 26577 ft | 351 kts | 250° |
| 2026-04-26 01:11 | 41.13933 | 70.38538 | 26155 ft | 349 kts | 250° |
| 2026-04-26 01:12 | 41.13070 | 70.35537 | 25737 ft | 348 kts | 250° |
| 2026-04-26 01:12 | 41.12209 | 70.32547 | 25312 ft | 347 kts | 250° |
| 2026-04-26 01:12 | 41.11350 | 70.29568 | 24898 ft | 346 kts | 250° |
| 2026-04-26 01:12 | 41.10491 | 70.26593 | 24501 ft | 345 kts | 250° |
| 2026-04-26 01:13 | 41.09578 | 70.23644 | 24054 ft | 345 kts | 246° |
| 2026-04-26 01:13 | 41.08472 | 70.20814 | 23628 ft | 345 kts | 243° |
| 2026-04-26 01:13 | 41.07324 | 70.18016 | 23164 ft | 344 kts | 243° |
| 2026-04-26 01:13 | 41.06178 | 70.15240 | 22719 ft | 343 kts | 243° |
| 2026-04-26 01:14 | 41.05040 | 70.12470 | 22290 ft | 341 kts | 243° |
| 2026-04-26 01:14 | 41.03917 | 70.09719 | 21874 ft | 338 kts | 243° |
| 2026-04-26 01:14 | 41.02802 | 70.06986 | 21473 ft | 336 kts | 243° |
| 2026-04-26 01:14 | 41.01693 | 70.04266 | 21064 ft | 334 kts | 243° |
| 2026-04-26 01:15 | 41.00603 | 70.01597 | 20665 ft | 332 kts | 243° |
| 2026-04-26 01:15 | 40.99487 | 69.98879 | 20266 ft | 331 kts | 243° |
| 2026-04-26 01:15 | 40.98401 | 69.96241 | 19865 ft | 329 kts | 243° |
| 2026-04-26 01:15 | 40.97307 | 69.93581 | 19456 ft | 328 kts | 243° |
| 2026-04-26 01:16 | 40.96219 | 69.90939 | 19056 ft | 326 kts | 243° |
| 2026-04-26 01:16 | 40.95132 | 69.88299 | 18667 ft | 325 kts | 243° |
| 2026-04-26 01:16 | 40.94053 | 69.85685 | 18260 ft | 324 kts | 242° |
| 2026-04-26 01:16 | 40.92972 | 69.83068 | 17794 ft | 323 kts | 242° |
| 2026-04-26 01:17 | 40.92034 | 69.80414 | 17366 ft | 317 kts | 252° |
| 2026-04-26 01:17 | 40.91564 | 69.77595 | 16983 ft | 314 kts | 263° |
| 2026-04-26 01:17 | 40.91510 | 69.74721 | 16597 ft | 311 kts | 271° |
| 2026-04-26 01:17 | 40.91576 | 69.71868 | 16211 ft | 309 kts | 271° |
| 2026-04-26 01:18 | 40.91632 | 69.69025 | 15818 ft | 307 kts | 270° |
| 2026-04-26 01:18 | 40.91680 | 69.66212 | 15444 ft | 306 kts | 270° |
| 2026-04-26 01:18 | 40.91721 | 69.63409 | 15052 ft | 305 kts | 270° |
| 2026-04-26 01:18 | 40.91759 | 69.60612 | 14668 ft | 304 kts | 270° |
| 2026-04-26 01:19 | 40.91794 | 69.57820 | 14274 ft | 303 kts | 270° |
| 2026-04-26 01:19 | 40.91817 | 69.55975 | 14034 ft | 302 kts | 270° |
| 2026-04-26 01:19 | 40.91852 | 69.53198 | 13616 ft | 302 kts | 270° |
| 2026-04-26 01:19 | 40.91885 | 69.50434 | 13193 ft | 300 kts | 270° |
| 2026-04-26 01:20 | 40.91918 | 69.47684 | 12805 ft | 298 kts | 270° |
| 2026-04-26 01:20 | 40.91949 | 69.44942 | 12421 ft | 297 kts | 270° |
| 2026-04-26 01:20 | 40.91990 | 69.41347 | 11925 ft | 294 kts | 270° |
| 2026-04-26 01:20 | 40.92019 | 69.38646 | 11550 ft | 293 kts | 270° |
| 2026-04-26 01:21 | 40.92040 | 69.36828 | 11303 ft | 292 kts | 270° |
| 2026-04-26 01:21 | 40.92068 | 69.34182 | 10933 ft | 291 kts | 270° |
| 2026-04-26 01:21 | 40.92096 | 69.31509 | 10570 ft | 290 kts | 270° |
| 2026-04-26 01:21 | 40.92123 | 69.28847 | 10234 ft | 288 kts | 270° |
| 2026-04-26 01:22 | 40.92149 | 69.26245 | 10088 ft | 279 kts | 270° |
| 2026-04-26 01:22 | 40.92174 | 69.23716 | 9868 ft | 274 kts | 270° |
| 2026-04-26 01:22 | 40.92199 | 69.21195 | 9512 ft | 273 kts | 270° |
| 2026-04-26 01:22 | 40.92222 | 69.18693 | 9178 ft | 271 kts | 270° |
| 2026-04-26 01:23 | 40.92244 | 69.16232 | 8847 ft | 270 kts | 270° |
| 2026-04-26 01:23 | 40.92266 | 69.13751 | 8523 ft | 269 kts | 270° |
| 2026-04-26 01:23 | 40.92288 | 69.11277 | 8201 ft | 269 kts | 270° |
| 2026-04-26 01:23 | 40.92309 | 69.08811 | 7877 ft | 269 kts | 269° |
| 2026-04-26 01:24 | 40.92329 | 69.06338 | 7557 ft | 269 kts | 269° |
| 2026-04-26 01:24 | 40.92606 | 69.03937 | 7207 ft | 266 kts | 292° |
| 2026-04-26 01:24 | 40.93704 | 69.01989 | 6954 ft | 266 kts | 321° |
| 2026-04-26 01:24 | 40.95358 | 69.00877 | 6769 ft | 271 kts | 346° |
| 2026-04-26 01:25 | 40.97243 | 69.00596 | 6569 ft | 277 kts | 356° |
| 2026-04-26 01:25 | 40.99196 | 69.00476 | 6365 ft | 282 kts | 357° |
| 2026-04-26 01:25 | 41.01148 | 69.00363 | 6146 ft | 279 kts | 357° |
| 2026-04-26 01:25 | 41.03072 | 69.00250 | 5925 ft | 275 kts | 358° |
| 2026-04-26 01:26 | 41.04975 | 69.00133 | 5748 ft | 273 kts | 357° |
| 2026-04-26 01:26 | 41.06877 | 69.00010 | 5540 ft | 274 kts | 358° |
| 2026-04-26 01:26 | 41.08759 | 68.99883 | 5349 ft | 275 kts | 358° |
| 2026-04-26 01:26 | 41.10667 | 68.99753 | 5157 ft | 275 kts | 358° |
| 2026-04-26 01:27 | 41.12553 | 68.99625 | 5059 ft | 267 kts | 358° |
| 2026-04-26 01:27 | 41.14402 | 68.99497 | 4821 ft | 265 kts | 358° |
| 2026-04-26 01:27 | 41.16241 | 68.99368 | 4579 ft | 263 kts | 358° |
| 2026-04-26 01:27 | 41.18061 | 68.99240 | 4382 ft | 260 kts | 358° |
| 2026-04-26 01:28 | 41.19848 | 68.99168 | 4175 ft | 251 kts | 7° |
| 2026-04-26 01:28 | 41.21434 | 68.99925 | 4005 ft | 240 kts | 40° |
| 2026-04-26 01:28 | 41.22400 | 69.01609 | 3859 ft | 223 kts | 73° |
| 2026-04-26 01:28 | 41.22823 | 69.03519 | 3744 ft | 211 kts | 79° |
| 2026-04-26 01:29 | 41.23135 | 69.05388 | 3614 ft | 203 kts | 83° |
| 2026-04-26 01:29 | 41.23353 | 69.07173 | 3545 ft | 193 kts | 85° |
| 2026-04-26 01:29 | 41.23542 | 69.08908 | 3410 ft | 186 kts | 85° |
| 2026-04-26 01:29 | 41.23723 | 69.10571 | 3305 ft | 175 kts | 86° |
| 2026-04-26 01:30 | 41.23894 | 69.12116 | 3178 ft | 164 kts | 86° |
| 2026-04-26 01:30 | 41.24055 | 69.13573 | 3094 ft | 155 kts | 86° |
| 2026-04-26 01:30 | 41.24208 | 69.14966 | 3014 ft | 151 kts | 86° |
| 2026-04-26 01:30 | 41.24361 | 69.16368 | 2801 ft | 153 kts | 86° |
| 2026-04-26 01:31 | 41.24510 | 69.17712 | 2606 ft | 139 kts | 86° |
| 2026-04-26 01:31 | 41.24644 | 69.18937 | 2455 ft | 133 kts | 86° |
| 2026-04-26 01:31 | 41.24776 | 69.20154 | 2264 ft | 132 kts | 85° |
| 2026-04-26 01:31 | 41.24910 | 69.21365 | 2096 ft | 132 kts | 84° |
| 2026-04-26 01:32 | 41.25043 | 69.22575 | 1923 ft | 133 kts | 82° |
| 2026-04-26 01:32 | 41.25175 | 69.23772 | 1741 ft | 128 kts | 81° |
| 2026-04-26 01:32 | 41.25302 | 69.24935 | 1581 ft | 127 kts | 81° |
| 2026-04-26 01:32 | 41.25432 | 69.26111 | 1428 ft | 129 kts | 81° |
| 2026-04-26 01:33 | 41.25551 | 69.27174 | 1417 ft | 100 kts | 82° |
| 2026-04-26 01:33 | 41.25628 | 69.27883 | 1414 ft | 55 kts | 82° |
| 2026-04-26 01:33 | 41.25665 | 69.28217 | 1412 ft | 29 kts | 82° |
| 2026-04-26 01:33 | 41.25695 | 69.28482 | 1415 ft | 29 kts | 81° |
| 2026-04-26 01:34 | 41.25708 | 69.28595 | 1415 ft | 21 kts | 81° |
| 2026-04-26 01:34 | 41.25718 | 69.28676 | 1414 ft | 17 kts | 81° |
| 2026-04-26 01:34 | 41.25728 | 69.28782 | 1413 ft | 9 kts | 82° |
| 2026-04-26 01:34 | 41.25747 | 69.28859 | 1411 ft | 9 kts | 51° |
| 2026-04-26 01:35 | 41.25803 | 69.28900 | 1412 ft | 10 kts | 24° |
| 2026-04-26 01:35 | 41.25870 | 69.28938 | 1413 ft | 11 kts | 20° |
| 2026-04-26 01:35 | 41.25942 | 69.28946 | 1412 ft | 11 kts | 349° |
| 2026-04-26 01:35 | 41.26009 | 69.28893 | 1409 ft | 14 kts | 320° |
| 2026-04-26 01:36 | 41.26096 | 69.28787 | 1386 ft | 18 kts | 317° |
| 2026-04-26 01:36 | 41.26156 | 69.28715 | 1385 ft | 11 kts | 316° |
| 2026-04-26 01:36 | 41.26183 | 69.28622 | 1383 ft | 11 kts | 278° |
| 2026-04-26 01:37 | 41.26192 | 69.28419 | 1384 ft | 11 kts | 270° |
| 2026-04-26 01:37 | 41.26184 | 69.28318 | 1384 ft | 11 kts | 261° |
| 2026-04-26 01:37 | 41.26173 | 69.28218 | 1387 ft | 11 kts | 261° |
| 2026-04-26 01:37 | 41.26161 | 69.28118 | 1386 ft | 11 kts | 261° |
| 2026-04-26 01:38 | 41.26149 | 69.28017 | 1383 ft | 11 kts | 261° |
| 2026-04-26 01:38 | 41.26138 | 69.27917 | 1385 ft | 11 kts | 263° |
| 2026-04-26 01:38 | 41.26128 | 69.27816 | 1384 ft | 11 kts | 262° |
| 2026-04-26 01:38 | 41.26117 | 69.27716 | 1384 ft | 11 kts | 262° |
| 2026-04-26 01:39 | 41.26106 | 69.27615 | 1385 ft | 11 kts | 262° |
| 2026-04-26 01:39 | 41.26095 | 69.27515 | 1382 ft | 11 kts | 262° |
| 2026-04-26 01:39 | 41.26084 | 69.27420 | 1384 ft | 10 kts | 262° |
| 2026-04-26 01:39 | 41.26075 | 69.27337 | 1385 ft | 9 kts | 261° |
| 2026-04-26 01:40 | 41.26064 | 69.27274 | 1384 ft | 5 kts | 256° |
| 2026-04-26 01:40 | 41.26077 | 69.27229 | 1382 ft | 5 kts | 310° |
| 2026-04-26 01:40 | 41.26104 | 69.27194 | 1382 ft | 5 kts | 318° |
| 2026-04-26 01:40 | 41.26135 | 69.27206 | 1383 ft | 5 kts | 64° |
| 2026-04-26 01:41 | 41.26136 | 69.27257 | 1381 ft | 6 kts | 85° |
| 2026-04-26 01:41 | 41.26141 | 69.27307 | 1384 ft | 6 kts | 82° |
| 2026-04-26 01:41 | 41.26143 | 69.27325 | 1385 ft | 0 kts | 82° |